<?xml version="1.0" encoding="UTF-8" standalone="no" ?>
<gpx xmlns="http://www.topografix.com/GPX/1/1" xmlns:xsi="http://www.w3.org/2001/XMLSchema-instance" xsi:schemaLocation="http://www.topografix.com/GPX/1/1 http://www.topografix.com/GPX/1/1/gpx.xsd" version="1.1" creator="VisuGPX - https://www.visugpx.com">
  <metadata>
    <name>ccv_29mai11_76km</name>
    <desc><![CDATA[ccv_29mai11_76kmccv_29mai11_76kmccv_29mai11_76kmccv_29mai11_76kmccv_29mai11_76kmccv_29mai11_76km]]></desc>
  </metadata>
  <trk>
    <name><![CDATA[Toaster Course]]></name>
    <trkseg>
      <trkpt lat="48.63399" lon="6.31426">
        <ele>205</ele>
        <time>2011-05-28T00:00:00Z</time>
      </trkpt>
      <trkpt lat="48.63403" lon="6.3143">
        <ele>204</ele>
        <time>2011-05-28T00:00:00Z</time>
      </trkpt>
      <trkpt lat="48.63366" lon="6.31516">
        <ele>204</ele>
        <time>2011-05-28T00:00:09Z</time>
      </trkpt>
      <trkpt lat="48.63334" lon="6.31629">
        <ele>204</ele>
        <time>2011-05-28T00:00:20Z</time>
      </trkpt>
      <trkpt lat="48.63364" lon="6.31611">
        <ele>204</ele>
        <time>2011-05-28T00:00:26Z</time>
      </trkpt>
      <trkpt lat="48.63415" lon="6.31597">
        <ele>204</ele>
        <time>2011-05-28T00:00:34Z</time>
      </trkpt>
      <trkpt lat="48.63521" lon="6.31253">
        <ele>207</ele>
        <time>2011-05-28T00:01:17Z</time>
      </trkpt>
      <trkpt lat="48.63447" lon="6.31109">
        <ele>204</ele>
        <time>2011-05-28T00:01:33Z</time>
      </trkpt>
      <trkpt lat="48.63412" lon="6.3102">
        <ele>204</ele>
        <time>2011-05-28T00:01:42Z</time>
      </trkpt>
      <trkpt lat="48.63416" lon="6.31013">
        <ele>204</ele>
        <time>2011-05-28T00:01:43Z</time>
      </trkpt>
      <trkpt lat="48.6339" lon="6.3095">
        <ele>204</ele>
        <time>2011-05-28T00:01:49Z</time>
      </trkpt>
      <trkpt lat="48.63291" lon="6.30797">
        <ele>203</ele>
        <time>2011-05-28T00:02:08Z</time>
      </trkpt>
      <trkpt lat="48.63271" lon="6.30752">
        <ele>203</ele>
        <time>2011-05-28T00:02:15Z</time>
      </trkpt>
      <trkpt lat="48.63264" lon="6.30711">
        <ele>203</ele>
        <time>2011-05-28T00:02:21Z</time>
      </trkpt>
      <trkpt lat="48.63281" lon="6.30671">
        <ele>204</ele>
        <time>2011-05-28T00:02:27Z</time>
      </trkpt>
      <trkpt lat="48.63297" lon="6.3062">
        <ele>205</ele>
        <time>2011-05-28T00:02:34Z</time>
      </trkpt>
      <trkpt lat="48.63318" lon="6.3049">
        <ele>205</ele>
        <time>2011-05-28T00:02:46Z</time>
      </trkpt>
      <trkpt lat="48.6333" lon="6.30454">
        <ele>205</ele>
        <time>2011-05-28T00:02:49Z</time>
      </trkpt>
      <trkpt lat="48.63256" lon="6.3032">
        <ele>209</ele>
        <time>2011-05-28T00:03:21Z</time>
      </trkpt>
      <trkpt lat="48.63251" lon="6.30306">
        <ele>209</ele>
        <time>2011-05-28T00:03:23Z</time>
      </trkpt>
      <trkpt lat="48.6325" lon="6.30283">
        <ele>209</ele>
        <time>2011-05-28T00:03:27Z</time>
      </trkpt>
      <trkpt lat="48.63245" lon="6.30271">
        <ele>209</ele>
        <time>2011-05-28T00:03:29Z</time>
      </trkpt>
      <trkpt lat="48.63175" lon="6.30179">
        <ele>212</ele>
        <time>2011-05-28T00:03:50Z</time>
      </trkpt>
      <trkpt lat="48.6314" lon="6.302">
        <ele>213</ele>
        <time>2011-05-28T00:04:00Z</time>
      </trkpt>
      <trkpt lat="48.63123" lon="6.30198">
        <ele>213</ele>
        <time>2011-05-28T00:04:04Z</time>
      </trkpt>
      <trkpt lat="48.63113" lon="6.30207">
        <ele>214</ele>
        <time>2011-05-28T00:04:07Z</time>
      </trkpt>
      <trkpt lat="48.63066" lon="6.30265">
        <ele>216</ele>
        <time>2011-05-28T00:04:23Z</time>
      </trkpt>
      <trkpt lat="48.63056" lon="6.30284">
        <ele>215</ele>
        <time>2011-05-28T00:04:25Z</time>
      </trkpt>
      <trkpt lat="48.63052" lon="6.30301">
        <ele>215</ele>
        <time>2011-05-28T00:04:27Z</time>
      </trkpt>
      <trkpt lat="48.63054" lon="6.3032">
        <ele>215</ele>
        <time>2011-05-28T00:04:28Z</time>
      </trkpt>
      <trkpt lat="48.63058" lon="6.30329">
        <ele>215</ele>
        <time>2011-05-28T00:04:29Z</time>
      </trkpt>
      <trkpt lat="48.63056" lon="6.30337">
        <ele>215</ele>
        <time>2011-05-28T00:04:30Z</time>
      </trkpt>
      <trkpt lat="48.63036" lon="6.3037">
        <ele>215</ele>
        <time>2011-05-28T00:04:34Z</time>
      </trkpt>
      <trkpt lat="48.62993" lon="6.30458">
        <ele>215</ele>
        <time>2011-05-28T00:04:44Z</time>
      </trkpt>
      <trkpt lat="48.62968" lon="6.30486">
        <ele>215</ele>
        <time>2011-05-28T00:04:51Z</time>
      </trkpt>
      <trkpt lat="48.62881" lon="6.30383">
        <ele>219</ele>
        <time>2011-05-28T00:05:19Z</time>
      </trkpt>
      <trkpt lat="48.62878" lon="6.30377">
        <ele>219</ele>
        <time>2011-05-28T00:05:20Z</time>
      </trkpt>
      <trkpt lat="48.6288" lon="6.30336">
        <ele>220</ele>
        <time>2011-05-28T00:05:29Z</time>
      </trkpt>
      <trkpt lat="48.62869" lon="6.30318">
        <ele>221</ele>
        <time>2011-05-28T00:05:34Z</time>
      </trkpt>
      <trkpt lat="48.62821" lon="6.30268">
        <ele>224</ele>
        <time>2011-05-28T00:05:53Z</time>
      </trkpt>
      <trkpt lat="48.62857" lon="6.30148">
        <ele>224</ele>
        <time>2011-05-28T00:06:04Z</time>
      </trkpt>
      <trkpt lat="48.62907" lon="6.30157">
        <ele>224</ele>
        <time>2011-05-28T00:06:11Z</time>
      </trkpt>
      <trkpt lat="48.6291" lon="6.30166">
        <ele>224</ele>
        <time>2011-05-28T00:06:13Z</time>
      </trkpt>
      <trkpt lat="48.62917" lon="6.30166">
        <ele>224</ele>
        <time>2011-05-28T00:06:15Z</time>
      </trkpt>
      <trkpt lat="48.6292" lon="6.30153">
        <ele>224</ele>
        <time>2011-05-28T00:06:18Z</time>
      </trkpt>
      <trkpt lat="48.62914" lon="6.30148">
        <ele>225</ele>
        <time>2011-05-28T00:06:20Z</time>
      </trkpt>
      <trkpt lat="48.62912" lon="6.30138">
        <ele>225</ele>
        <time>2011-05-28T00:06:22Z</time>
      </trkpt>
      <trkpt lat="48.62906" lon="6.30081">
        <ele>227</ele>
        <time>2011-05-28T00:06:33Z</time>
      </trkpt>
      <trkpt lat="48.62692" lon="6.29721">
        <ele>240</ele>
        <time>2011-05-28T00:08:08Z</time>
      </trkpt>
      <trkpt lat="48.62607" lon="6.29597">
        <ele>248</ele>
        <time>2011-05-28T00:08:56Z</time>
      </trkpt>
      <trkpt lat="48.62511" lon="6.29434">
        <ele>255</ele>
        <time>2011-05-28T00:09:43Z</time>
      </trkpt>
      <trkpt lat="48.62488" lon="6.29384">
        <ele>254</ele>
        <time>2011-05-28T00:09:48Z</time>
      </trkpt>
      <trkpt lat="48.62474" lon="6.29343">
        <ele>254</ele>
        <time>2011-05-28T00:09:52Z</time>
      </trkpt>
      <trkpt lat="48.62428" lon="6.29261">
        <ele>254</ele>
        <time>2011-05-28T00:10:02Z</time>
      </trkpt>
      <trkpt lat="48.62317" lon="6.29091">
        <ele>252</ele>
        <time>2011-05-28T00:10:23Z</time>
      </trkpt>
      <trkpt lat="48.62246" lon="6.29">
        <ele>249</ele>
        <time>2011-05-28T00:10:35Z</time>
      </trkpt>
      <trkpt lat="48.62151" lon="6.28895">
        <ele>245</ele>
        <time>2011-05-28T00:10:51Z</time>
      </trkpt>
      <trkpt lat="48.62027" lon="6.28738">
        <ele>241</ele>
        <time>2011-05-28T00:11:13Z</time>
      </trkpt>
      <trkpt lat="48.61889" lon="6.28519">
        <ele>236</ele>
        <time>2011-05-28T00:11:39Z</time>
      </trkpt>
      <trkpt lat="48.61864" lon="6.28493">
        <ele>236</ele>
        <time>2011-05-28T00:11:44Z</time>
      </trkpt>
      <trkpt lat="48.6181" lon="6.28466">
        <ele>236</ele>
        <time>2011-05-28T00:11:51Z</time>
      </trkpt>
      <trkpt lat="48.61784" lon="6.28444">
        <ele>236</ele>
        <time>2011-05-28T00:11:55Z</time>
      </trkpt>
      <trkpt lat="48.61775" lon="6.28414">
        <ele>236</ele>
        <time>2011-05-28T00:12:00Z</time>
      </trkpt>
      <trkpt lat="48.61773" lon="6.2835">
        <ele>237</ele>
        <time>2011-05-28T00:12:09Z</time>
      </trkpt>
      <trkpt lat="48.61766" lon="6.28304">
        <ele>238</ele>
        <time>2011-05-28T00:12:16Z</time>
      </trkpt>
      <trkpt lat="48.61735" lon="6.28247">
        <ele>239</ele>
        <time>2011-05-28T00:12:28Z</time>
      </trkpt>
      <trkpt lat="48.61652" lon="6.28119">
        <ele>243</ele>
        <time>2011-05-28T00:12:58Z</time>
      </trkpt>
      <trkpt lat="48.61547" lon="6.28001">
        <ele>246</ele>
        <time>2011-05-28T00:13:28Z</time>
      </trkpt>
      <trkpt lat="48.61484" lon="6.27896">
        <ele>246</ele>
        <time>2011-05-28T00:13:40Z</time>
      </trkpt>
      <trkpt lat="48.61424" lon="6.27811">
        <ele>247</ele>
        <time>2011-05-28T00:13:56Z</time>
      </trkpt>
      <trkpt lat="48.61332" lon="6.27713">
        <ele>249</ele>
        <time>2011-05-28T00:14:18Z</time>
      </trkpt>
      <trkpt lat="48.61271" lon="6.27656">
        <ele>251</ele>
        <time>2011-05-28T00:14:37Z</time>
      </trkpt>
      <trkpt lat="48.61179" lon="6.27545">
        <ele>255</ele>
        <time>2011-05-28T00:15:07Z</time>
      </trkpt>
      <trkpt lat="48.61114" lon="6.27483">
        <ele>255</ele>
        <time>2011-05-28T00:15:19Z</time>
      </trkpt>
      <trkpt lat="48.61017" lon="6.27371">
        <ele>256</ele>
        <time>2011-05-28T00:15:38Z</time>
      </trkpt>
      <trkpt lat="48.60948" lon="6.27312">
        <ele>257</ele>
        <time>2011-05-28T00:15:55Z</time>
      </trkpt>
      <trkpt lat="48.60771" lon="6.27228">
        <ele>261</ele>
        <time>2011-05-28T00:16:33Z</time>
      </trkpt>
      <trkpt lat="48.60672" lon="6.27187">
        <ele>262</ele>
        <time>2011-05-28T00:16:51Z</time>
      </trkpt>
      <trkpt lat="48.60569" lon="6.27131">
        <ele>264</ele>
        <time>2011-05-28T00:17:14Z</time>
      </trkpt>
      <trkpt lat="48.60468" lon="6.27053">
        <ele>266</ele>
        <time>2011-05-28T00:17:37Z</time>
      </trkpt>
      <trkpt lat="48.60468" lon="6.27054">
        <ele>266</ele>
        <time>2011-05-28T00:17:37Z</time>
      </trkpt>
      <trkpt lat="48.60332" lon="6.2691">
        <ele>272</ele>
        <time>2011-05-28T00:18:23Z</time>
      </trkpt>
      <trkpt lat="48.60207" lon="6.26765">
        <ele>275</ele>
        <time>2011-05-28T00:18:56Z</time>
      </trkpt>
      <trkpt lat="48.6014" lon="6.26676">
        <ele>276</ele>
        <time>2011-05-28T00:19:16Z</time>
      </trkpt>
      <trkpt lat="48.6014" lon="6.2667">
        <ele>277</ele>
        <time>2011-05-28T00:19:17Z</time>
      </trkpt>
      <trkpt lat="48.60174" lon="6.26606">
        <ele>276</ele>
        <time>2011-05-28T00:19:24Z</time>
      </trkpt>
      <trkpt lat="48.60139" lon="6.2655">
        <ele>275</ele>
        <time>2011-05-28T00:19:31Z</time>
      </trkpt>
      <trkpt lat="48.6011" lon="6.26491">
        <ele>275</ele>
        <time>2011-05-28T00:19:37Z</time>
      </trkpt>
      <trkpt lat="48.60051" lon="6.26309">
        <ele>274</ele>
        <time>2011-05-28T00:19:55Z</time>
      </trkpt>
      <trkpt lat="48.60041" lon="6.26291">
        <ele>274</ele>
        <time>2011-05-28T00:19:57Z</time>
      </trkpt>
      <trkpt lat="48.59998" lon="6.26238">
        <ele>274</ele>
        <time>2011-05-28T00:20:05Z</time>
      </trkpt>
      <trkpt lat="48.5998" lon="6.26206">
        <ele>274</ele>
        <time>2011-05-28T00:20:08Z</time>
      </trkpt>
      <trkpt lat="48.59936" lon="6.26145">
        <ele>275</ele>
        <time>2011-05-28T00:20:24Z</time>
      </trkpt>
      <trkpt lat="48.59884" lon="6.26084">
        <ele>278</ele>
        <time>2011-05-28T00:20:41Z</time>
      </trkpt>
      <trkpt lat="48.59852" lon="6.26022">
        <ele>278</ele>
        <time>2011-05-28T00:20:48Z</time>
      </trkpt>
      <trkpt lat="48.59848" lon="6.25983">
        <ele>278</ele>
        <time>2011-05-28T00:20:52Z</time>
      </trkpt>
      <trkpt lat="48.59851" lon="6.25761">
        <ele>278</ele>
        <time>2011-05-28T00:21:11Z</time>
      </trkpt>
      <trkpt lat="48.5984" lon="6.25716">
        <ele>277</ele>
        <time>2011-05-28T00:21:15Z</time>
      </trkpt>
      <trkpt lat="48.59802" lon="6.25639">
        <ele>277</ele>
        <time>2011-05-28T00:21:24Z</time>
      </trkpt>
      <trkpt lat="48.59765" lon="6.2558">
        <ele>277</ele>
        <time>2011-05-28T00:21:33Z</time>
      </trkpt>
      <trkpt lat="48.59714" lon="6.2551">
        <ele>278</ele>
        <time>2011-05-28T00:21:44Z</time>
      </trkpt>
      <trkpt lat="48.59682" lon="6.25456">
        <ele>278</ele>
        <time>2011-05-28T00:21:51Z</time>
      </trkpt>
      <trkpt lat="48.5962" lon="6.25309">
        <ele>278</ele>
        <time>2011-05-28T00:22:06Z</time>
      </trkpt>
      <trkpt lat="48.59572" lon="6.25171">
        <ele>277</ele>
        <time>2011-05-28T00:22:20Z</time>
      </trkpt>
      <trkpt lat="48.5954" lon="6.25128">
        <ele>275</ele>
        <time>2011-05-28T00:22:26Z</time>
      </trkpt>
      <trkpt lat="48.59469" lon="6.2505">
        <ele>273</ele>
        <time>2011-05-28T00:22:37Z</time>
      </trkpt>
      <trkpt lat="48.59453" lon="6.25026">
        <ele>272</ele>
        <time>2011-05-28T00:22:40Z</time>
      </trkpt>
      <trkpt lat="48.59426" lon="6.24964">
        <ele>272</ele>
        <time>2011-05-28T00:22:47Z</time>
      </trkpt>
      <trkpt lat="48.59408" lon="6.24934">
        <ele>272</ele>
        <time>2011-05-28T00:22:50Z</time>
      </trkpt>
      <trkpt lat="48.59241" lon="6.24704">
        <ele>287</ele>
        <time>2011-05-28T00:24:21Z</time>
      </trkpt>
      <trkpt lat="48.59217" lon="6.24664">
        <ele>289</ele>
        <time>2011-05-28T00:24:34Z</time>
      </trkpt>
      <trkpt lat="48.59178" lon="6.24548">
        <ele>294</ele>
        <time>2011-05-28T00:25:05Z</time>
      </trkpt>
      <trkpt lat="48.59138" lon="6.24464">
        <ele>294</ele>
        <time>2011-05-28T00:25:17Z</time>
      </trkpt>
      <trkpt lat="48.5911" lon="6.24431">
        <ele>295</ele>
        <time>2011-05-28T00:25:23Z</time>
      </trkpt>
      <trkpt lat="48.59052" lon="6.24398">
        <ele>295</ele>
        <time>2011-05-28T00:25:34Z</time>
      </trkpt>
      <trkpt lat="48.59023" lon="6.24376">
        <ele>296</ele>
        <time>2011-05-28T00:25:39Z</time>
      </trkpt>
      <trkpt lat="48.58972" lon="6.24288">
        <ele>295</ele>
        <time>2011-05-28T00:25:50Z</time>
      </trkpt>
      <trkpt lat="48.58937" lon="6.24206">
        <ele>295</ele>
        <time>2011-05-28T00:25:58Z</time>
      </trkpt>
      <trkpt lat="48.58812" lon="6.23795">
        <ele>288</ele>
        <time>2011-05-28T00:26:38Z</time>
      </trkpt>
      <trkpt lat="48.58755" lon="6.23671">
        <ele>287</ele>
        <time>2011-05-28T00:26:52Z</time>
      </trkpt>
      <trkpt lat="48.5872" lon="6.23583">
        <ele>287</ele>
        <time>2011-05-28T00:27:04Z</time>
      </trkpt>
      <trkpt lat="48.58664" lon="6.23464">
        <ele>289</ele>
        <time>2011-05-28T00:27:22Z</time>
      </trkpt>
      <trkpt lat="48.58664" lon="6.23464">
        <ele>289</ele>
        <time>2011-05-28T00:27:23Z</time>
      </trkpt>
      <trkpt lat="48.58644" lon="6.23422">
        <ele>288</ele>
        <time>2011-05-28T00:27:27Z</time>
      </trkpt>
      <trkpt lat="48.58631" lon="6.23378">
        <ele>287</ele>
        <time>2011-05-28T00:27:31Z</time>
      </trkpt>
      <trkpt lat="48.58618" lon="6.23256">
        <ele>286</ele>
        <time>2011-05-28T00:27:42Z</time>
      </trkpt>
      <trkpt lat="48.586" lon="6.23165">
        <ele>284</ele>
        <time>2011-05-28T00:27:51Z</time>
      </trkpt>
      <trkpt lat="48.58584" lon="6.23118">
        <ele>284</ele>
        <time>2011-05-28T00:27:55Z</time>
      </trkpt>
      <trkpt lat="48.58559" lon="6.23082">
        <ele>284</ele>
        <time>2011-05-28T00:28:02Z</time>
      </trkpt>
      <trkpt lat="48.58393" lon="6.2288">
        <ele>288</ele>
        <time>2011-05-28T00:28:45Z</time>
      </trkpt>
      <trkpt lat="48.58376" lon="6.22853">
        <ele>288</ele>
        <time>2011-05-28T00:28:49Z</time>
      </trkpt>
      <trkpt lat="48.58335" lon="6.22739">
        <ele>289</ele>
        <time>2011-05-28T00:29:03Z</time>
      </trkpt>
      <trkpt lat="48.58279" lon="6.22531">
        <ele>290</ele>
        <time>2011-05-28T00:29:27Z</time>
      </trkpt>
      <trkpt lat="48.58248" lon="6.22486">
        <ele>292</ele>
        <time>2011-05-28T00:29:42Z</time>
      </trkpt>
      <trkpt lat="48.58214" lon="6.22422">
        <ele>295</ele>
        <time>2011-05-28T00:30:00Z</time>
      </trkpt>
      <trkpt lat="48.58215" lon="6.22397">
        <ele>295</ele>
        <time>2011-05-28T00:30:06Z</time>
      </trkpt>
      <trkpt lat="48.58242" lon="6.22323">
        <ele>298</ele>
        <time>2011-05-28T00:30:25Z</time>
      </trkpt>
      <trkpt lat="48.58239" lon="6.22308">
        <ele>299</ele>
        <time>2011-05-28T00:30:28Z</time>
      </trkpt>
      <trkpt lat="48.58227" lon="6.22298">
        <ele>300</ele>
        <time>2011-05-28T00:30:33Z</time>
      </trkpt>
      <trkpt lat="48.5821" lon="6.22299">
        <ele>300</ele>
        <time>2011-05-28T00:30:39Z</time>
      </trkpt>
      <trkpt lat="48.58166" lon="6.22329">
        <ele>303</ele>
        <time>2011-05-28T00:30:55Z</time>
      </trkpt>
      <trkpt lat="48.58119" lon="6.22351">
        <ele>306</ele>
        <time>2011-05-28T00:31:12Z</time>
      </trkpt>
      <trkpt lat="48.58106" lon="6.22345">
        <ele>306</ele>
        <time>2011-05-28T00:31:17Z</time>
      </trkpt>
      <trkpt lat="48.58103" lon="6.22337">
        <ele>306</ele>
        <time>2011-05-28T00:31:19Z</time>
      </trkpt>
      <trkpt lat="48.58104" lon="6.2231">
        <ele>307</ele>
        <time>2011-05-28T00:31:25Z</time>
      </trkpt>
      <trkpt lat="48.58215" lon="6.21903">
        <ele>322</ele>
        <time>2011-05-28T00:33:00Z</time>
      </trkpt>
      <trkpt lat="48.58218" lon="6.2188">
        <ele>322</ele>
        <time>2011-05-28T00:33:04Z</time>
      </trkpt>
      <trkpt lat="48.58211" lon="6.21762">
        <ele>325</ele>
        <time>2011-05-28T00:33:25Z</time>
      </trkpt>
      <trkpt lat="48.58203" lon="6.21709">
        <ele>325</ele>
        <time>2011-05-28T00:33:33Z</time>
      </trkpt>
      <trkpt lat="48.58185" lon="6.21494">
        <ele>329</ele>
        <time>2011-05-28T00:34:05Z</time>
      </trkpt>
      <trkpt lat="48.58161" lon="6.21422">
        <ele>330</ele>
        <time>2011-05-28T00:34:18Z</time>
      </trkpt>
      <trkpt lat="48.58123" lon="6.21355">
        <ele>332</ele>
        <time>2011-05-28T00:34:32Z</time>
      </trkpt>
      <trkpt lat="48.58089" lon="6.21278">
        <ele>330</ele>
        <time>2011-05-28T00:34:40Z</time>
      </trkpt>
      <trkpt lat="48.58065" lon="6.21199">
        <ele>329</ele>
        <time>2011-05-28T00:34:47Z</time>
      </trkpt>
      <trkpt lat="48.58049" lon="6.21126">
        <ele>328</ele>
        <time>2011-05-28T00:34:54Z</time>
      </trkpt>
      <trkpt lat="48.58036" lon="6.2103">
        <ele>327</ele>
        <time>2011-05-28T00:35:03Z</time>
      </trkpt>
      <trkpt lat="48.58028" lon="6.20929">
        <ele>325</ele>
        <time>2011-05-28T00:35:12Z</time>
      </trkpt>
      <trkpt lat="48.58011" lon="6.20836">
        <ele>325</ele>
        <time>2011-05-28T00:35:20Z</time>
      </trkpt>
      <trkpt lat="48.57996" lon="6.2077">
        <ele>323</ele>
        <time>2011-05-28T00:35:27Z</time>
      </trkpt>
      <trkpt lat="48.5796" lon="6.20647">
        <ele>320</ele>
        <time>2011-05-28T00:35:39Z</time>
      </trkpt>
      <trkpt lat="48.57958" lon="6.20625">
        <ele>319</ele>
        <time>2011-05-28T00:35:40Z</time>
      </trkpt>
      <trkpt lat="48.57962" lon="6.20544">
        <ele>318</ele>
        <time>2011-05-28T00:35:48Z</time>
      </trkpt>
      <trkpt lat="48.57981" lon="6.2047">
        <ele>318</ele>
        <time>2011-05-28T00:35:55Z</time>
      </trkpt>
      <trkpt lat="48.58281" lon="6.19799">
        <ele>313</ele>
        <time>2011-05-28T00:37:06Z</time>
      </trkpt>
      <trkpt lat="48.58303" lon="6.19761">
        <ele>311</ele>
        <time>2011-05-28T00:37:11Z</time>
      </trkpt>
      <trkpt lat="48.58319" lon="6.19742">
        <ele>310</ele>
        <time>2011-05-28T00:37:13Z</time>
      </trkpt>
      <trkpt lat="48.58342" lon="6.19726">
        <ele>309</ele>
        <time>2011-05-28T00:37:17Z</time>
      </trkpt>
      <trkpt lat="48.58374" lon="6.19692">
        <ele>308</ele>
        <time>2011-05-28T00:37:22Z</time>
      </trkpt>
      <trkpt lat="48.58387" lon="6.19665">
        <ele>307</ele>
        <time>2011-05-28T00:37:25Z</time>
      </trkpt>
      <trkpt lat="48.5839" lon="6.19635">
        <ele>306</ele>
        <time>2011-05-28T00:37:28Z</time>
      </trkpt>
      <trkpt lat="48.58389" lon="6.19442">
        <ele>301</ele>
        <time>2011-05-28T00:37:45Z</time>
      </trkpt>
      <trkpt lat="48.58382" lon="6.1931">
        <ele>297</ele>
        <time>2011-05-28T00:37:56Z</time>
      </trkpt>
      <trkpt lat="48.58321" lon="6.19026">
        <ele>288</ele>
        <time>2011-05-28T00:38:23Z</time>
      </trkpt>
      <trkpt lat="48.58292" lon="6.18914">
        <ele>282</ele>
        <time>2011-05-28T00:38:33Z</time>
      </trkpt>
      <trkpt lat="48.58258" lon="6.18809">
        <ele>278</ele>
        <time>2011-05-28T00:38:44Z</time>
      </trkpt>
      <trkpt lat="48.58243" lon="6.18747">
        <ele>275</ele>
        <time>2011-05-28T00:38:50Z</time>
      </trkpt>
      <trkpt lat="48.5823" lon="6.1863">
        <ele>271</ele>
        <time>2011-05-28T00:39:00Z</time>
      </trkpt>
      <trkpt lat="48.58222" lon="6.18391">
        <ele>255</ele>
        <time>2011-05-28T00:39:21Z</time>
      </trkpt>
      <trkpt lat="48.58223" lon="6.18286">
        <ele>252</ele>
        <time>2011-05-28T00:39:31Z</time>
      </trkpt>
      <trkpt lat="48.58234" lon="6.18266">
        <ele>251</ele>
        <time>2011-05-28T00:39:33Z</time>
      </trkpt>
      <trkpt lat="48.58253" lon="6.18257">
        <ele>251</ele>
        <time>2011-05-28T00:39:35Z</time>
      </trkpt>
      <trkpt lat="48.58274" lon="6.18261">
        <ele>251</ele>
        <time>2011-05-28T00:39:38Z</time>
      </trkpt>
      <trkpt lat="48.5829" lon="6.18276">
        <ele>251</ele>
        <time>2011-05-28T00:39:41Z</time>
      </trkpt>
      <trkpt lat="48.58347" lon="6.18313">
        <ele>251</ele>
        <time>2011-05-28T00:39:49Z</time>
      </trkpt>
      <trkpt lat="48.58361" lon="6.18308">
        <ele>250</ele>
        <time>2011-05-28T00:39:51Z</time>
      </trkpt>
      <trkpt lat="48.5836" lon="6.1828">
        <ele>249</ele>
        <time>2011-05-28T00:39:54Z</time>
      </trkpt>
      <trkpt lat="48.58355" lon="6.18253">
        <ele>249</ele>
        <time>2011-05-28T00:39:56Z</time>
      </trkpt>
      <trkpt lat="48.58305" lon="6.18133">
        <ele>246</ele>
        <time>2011-05-28T00:40:09Z</time>
      </trkpt>
      <trkpt lat="48.58282" lon="6.18068">
        <ele>243</ele>
        <time>2011-05-28T00:40:15Z</time>
      </trkpt>
      <trkpt lat="48.58242" lon="6.17939">
        <ele>239</ele>
        <time>2011-05-28T00:40:28Z</time>
      </trkpt>
      <trkpt lat="48.58189" lon="6.17835">
        <ele>232</ele>
        <time>2011-05-28T00:40:39Z</time>
      </trkpt>
      <trkpt lat="48.58183" lon="6.17803">
        <ele>231</ele>
        <time>2011-05-28T00:40:42Z</time>
      </trkpt>
      <trkpt lat="48.58113" lon="6.17864">
        <ele>230</ele>
        <time>2011-05-28T00:40:53Z</time>
      </trkpt>
      <trkpt lat="48.57942" lon="6.18038">
        <ele>229</ele>
        <time>2011-05-28T00:41:20Z</time>
      </trkpt>
      <trkpt lat="48.57917" lon="6.18036">
        <ele>227</ele>
        <time>2011-05-28T00:41:24Z</time>
      </trkpt>
      <trkpt lat="48.57845" lon="6.18013">
        <ele>224</ele>
        <time>2011-05-28T00:41:34Z</time>
      </trkpt>
      <trkpt lat="48.57797" lon="6.18005">
        <ele>224</ele>
        <time>2011-05-28T00:41:42Z</time>
      </trkpt>
      <trkpt lat="48.57748" lon="6.1799">
        <ele>225</ele>
        <time>2011-05-28T00:41:51Z</time>
      </trkpt>
      <trkpt lat="48.57741" lon="6.17982">
        <ele>225</ele>
        <time>2011-05-28T00:41:53Z</time>
      </trkpt>
      <trkpt lat="48.57713" lon="6.17971">
        <ele>225</ele>
        <time>2011-05-28T00:41:59Z</time>
      </trkpt>
      <trkpt lat="48.57691" lon="6.17955">
        <ele>226</ele>
        <time>2011-05-28T00:42:04Z</time>
      </trkpt>
      <trkpt lat="48.5767" lon="6.17925">
        <ele>226</ele>
        <time>2011-05-28T00:42:10Z</time>
      </trkpt>
      <trkpt lat="48.57661" lon="6.17898">
        <ele>227</ele>
        <time>2011-05-28T00:42:14Z</time>
      </trkpt>
      <trkpt lat="48.57654" lon="6.17891">
        <ele>226</ele>
        <time>2011-05-28T00:42:15Z</time>
      </trkpt>
      <trkpt lat="48.57651" lon="6.17881">
        <ele>226</ele>
        <time>2011-05-28T00:42:16Z</time>
      </trkpt>
      <trkpt lat="48.57648" lon="6.17831">
        <ele>226</ele>
        <time>2011-05-28T00:42:20Z</time>
      </trkpt>
      <trkpt lat="48.57629" lon="6.17706">
        <ele>226</ele>
        <time>2011-05-28T00:42:31Z</time>
      </trkpt>
      <trkpt lat="48.57621" lon="6.17672">
        <ele>226</ele>
        <time>2011-05-28T00:42:38Z</time>
      </trkpt>
      <trkpt lat="48.57607" lon="6.17638">
        <ele>227</ele>
        <time>2011-05-28T00:42:44Z</time>
      </trkpt>
      <trkpt lat="48.5757" lon="6.17585">
        <ele>229</ele>
        <time>2011-05-28T00:42:57Z</time>
      </trkpt>
      <trkpt lat="48.57546" lon="6.17565">
        <ele>230</ele>
        <time>2011-05-28T00:43:07Z</time>
      </trkpt>
      <trkpt lat="48.57529" lon="6.17555">
        <ele>231</ele>
        <time>2011-05-28T00:43:14Z</time>
      </trkpt>
      <trkpt lat="48.57473" lon="6.17542">
        <ele>235</ele>
        <time>2011-05-28T00:43:35Z</time>
      </trkpt>
      <trkpt lat="48.57391" lon="6.17563">
        <ele>239</ele>
        <time>2011-05-28T00:44:03Z</time>
      </trkpt>
      <trkpt lat="48.57229" lon="6.17641">
        <ele>248</ele>
        <time>2011-05-28T00:45:01Z</time>
      </trkpt>
      <trkpt lat="48.57188" lon="6.17639">
        <ele>250</ele>
        <time>2011-05-28T00:45:17Z</time>
      </trkpt>
      <trkpt lat="48.57149" lon="6.17616">
        <ele>253</ele>
        <time>2011-05-28T00:45:33Z</time>
      </trkpt>
      <trkpt lat="48.57107" lon="6.1761">
        <ele>256</ele>
        <time>2011-05-28T00:45:49Z</time>
      </trkpt>
      <trkpt lat="48.57053" lon="6.17623">
        <ele>259</ele>
        <time>2011-05-28T00:46:09Z</time>
      </trkpt>
      <trkpt lat="48.56969" lon="6.17658">
        <ele>264</ele>
        <time>2011-05-28T00:46:40Z</time>
      </trkpt>
      <trkpt lat="48.56949" lon="6.17675">
        <ele>264</ele>
        <time>2011-05-28T00:46:47Z</time>
      </trkpt>
      <trkpt lat="48.56929" lon="6.17732">
        <ele>266</ele>
        <time>2011-05-28T00:46:58Z</time>
      </trkpt>
      <trkpt lat="48.56928" lon="6.17844">
        <ele>269</ele>
        <time>2011-05-28T00:47:19Z</time>
      </trkpt>
      <trkpt lat="48.56924" lon="6.17864">
        <ele>269</ele>
        <time>2011-05-28T00:47:22Z</time>
      </trkpt>
      <trkpt lat="48.56909" lon="6.17898">
        <ele>270</ele>
        <time>2011-05-28T00:47:29Z</time>
      </trkpt>
      <trkpt lat="48.56868" lon="6.17931">
        <ele>271</ele>
        <time>2011-05-28T00:47:40Z</time>
      </trkpt>
      <trkpt lat="48.5681" lon="6.17949">
        <ele>273</ele>
        <time>2011-05-28T00:47:54Z</time>
      </trkpt>
      <trkpt lat="48.56786" lon="6.17974">
        <ele>273</ele>
        <time>2011-05-28T00:48:00Z</time>
      </trkpt>
      <trkpt lat="48.56781" lon="6.17987">
        <ele>273</ele>
        <time>2011-05-28T00:48:02Z</time>
      </trkpt>
      <trkpt lat="48.56749" lon="6.18032">
        <ele>274</ele>
        <time>2011-05-28T00:48:11Z</time>
      </trkpt>
      <trkpt lat="48.56711" lon="6.18063">
        <ele>275</ele>
        <time>2011-05-28T00:48:19Z</time>
      </trkpt>
      <trkpt lat="48.56644" lon="6.18099">
        <ele>275</ele>
        <time>2011-05-28T00:48:32Z</time>
      </trkpt>
      <trkpt lat="48.5662" lon="6.18102">
        <ele>276</ele>
        <time>2011-05-28T00:48:36Z</time>
      </trkpt>
      <trkpt lat="48.56586" lon="6.18084">
        <ele>278</ele>
        <time>2011-05-28T00:48:49Z</time>
      </trkpt>
      <trkpt lat="48.5649" lon="6.17965">
        <ele>285</ele>
        <time>2011-05-28T00:49:33Z</time>
      </trkpt>
      <trkpt lat="48.56367" lon="6.17788">
        <ele>293</ele>
        <time>2011-05-28T00:50:28Z</time>
      </trkpt>
      <trkpt lat="48.56357" lon="6.17777">
        <ele>293</ele>
        <time>2011-05-28T00:50:31Z</time>
      </trkpt>
      <trkpt lat="48.56334" lon="6.17764">
        <ele>294</ele>
        <time>2011-05-28T00:50:37Z</time>
      </trkpt>
      <trkpt lat="48.56319" lon="6.17761">
        <ele>294</ele>
        <time>2011-05-28T00:50:41Z</time>
      </trkpt>
      <trkpt lat="48.56303" lon="6.17765">
        <ele>294</ele>
        <time>2011-05-28T00:50:45Z</time>
      </trkpt>
      <trkpt lat="48.56289" lon="6.1777">
        <ele>295</ele>
        <time>2011-05-28T00:50:48Z</time>
      </trkpt>
      <trkpt lat="48.56271" lon="6.17791">
        <ele>296</ele>
        <time>2011-05-28T00:50:54Z</time>
      </trkpt>
      <trkpt lat="48.56255" lon="6.17826">
        <ele>295</ele>
        <time>2011-05-28T00:50:58Z</time>
      </trkpt>
      <trkpt lat="48.56247" lon="6.17862">
        <ele>295</ele>
        <time>2011-05-28T00:51:01Z</time>
      </trkpt>
      <trkpt lat="48.56264" lon="6.17933">
        <ele>295</ele>
        <time>2011-05-28T00:51:08Z</time>
      </trkpt>
      <trkpt lat="48.56264" lon="6.17998">
        <ele>297</ele>
        <time>2011-05-28T00:51:22Z</time>
      </trkpt>
      <trkpt lat="48.56257" lon="6.18039">
        <ele>298</ele>
        <time>2011-05-28T00:51:31Z</time>
      </trkpt>
      <trkpt lat="48.56185" lon="6.18184">
        <ele>304</ele>
        <time>2011-05-28T00:52:09Z</time>
      </trkpt>
      <trkpt lat="48.56" lon="6.18516">
        <ele>313</ele>
        <time>2011-05-28T00:53:24Z</time>
      </trkpt>
      <trkpt lat="48.55969" lon="6.18465">
        <ele>314</ele>
        <time>2011-05-28T00:53:35Z</time>
      </trkpt>
      <trkpt lat="48.55949" lon="6.1842">
        <ele>315</ele>
        <time>2011-05-28T00:53:45Z</time>
      </trkpt>
      <trkpt lat="48.5589" lon="6.18266">
        <ele>319</ele>
        <time>2011-05-28T00:54:14Z</time>
      </trkpt>
      <trkpt lat="48.55879" lon="6.18232">
        <ele>318</ele>
        <time>2011-05-28T00:54:18Z</time>
      </trkpt>
      <trkpt lat="48.55877" lon="6.1821">
        <ele>317</ele>
        <time>2011-05-28T00:54:20Z</time>
      </trkpt>
      <trkpt lat="48.55909" lon="6.18197">
        <ele>316</ele>
        <time>2011-05-28T00:54:24Z</time>
      </trkpt>
      <trkpt lat="48.55934" lon="6.18169">
        <ele>315</ele>
        <time>2011-05-28T00:54:28Z</time>
      </trkpt>
      <trkpt lat="48.56058" lon="6.17905">
        <ele>307</ele>
        <time>2011-05-28T00:54:57Z</time>
      </trkpt>
      <trkpt lat="48.5613" lon="6.17798">
        <ele>303</ele>
        <time>2011-05-28T00:55:10Z</time>
      </trkpt>
      <trkpt lat="48.56272" lon="6.17618">
        <ele>302</ele>
        <time>2011-05-28T00:55:35Z</time>
      </trkpt>
      <trkpt lat="48.56284" lon="6.17599">
        <ele>302</ele>
        <time>2011-05-28T00:55:40Z</time>
      </trkpt>
      <trkpt lat="48.56294" lon="6.17567">
        <ele>303</ele>
        <time>2011-05-28T00:55:47Z</time>
      </trkpt>
      <trkpt lat="48.56318" lon="6.17434">
        <ele>307</ele>
        <time>2011-05-28T00:56:13Z</time>
      </trkpt>
      <trkpt lat="48.56319" lon="6.17386">
        <ele>307</ele>
        <time>2011-05-28T00:56:21Z</time>
      </trkpt>
      <trkpt lat="48.56319" lon="6.1734">
        <ele>308</ele>
        <time>2011-05-28T00:56:28Z</time>
      </trkpt>
      <trkpt lat="48.56311" lon="6.17269">
        <ele>310</ele>
        <time>2011-05-28T00:56:40Z</time>
      </trkpt>
      <trkpt lat="48.56295" lon="6.17182">
        <ele>311</ele>
        <time>2011-05-28T00:56:52Z</time>
      </trkpt>
      <trkpt lat="48.56296" lon="6.17154">
        <ele>311</ele>
        <time>2011-05-28T00:56:56Z</time>
      </trkpt>
      <trkpt lat="48.56338" lon="6.16796">
        <ele>316</ele>
        <time>2011-05-28T00:57:46Z</time>
      </trkpt>
      <trkpt lat="48.5634" lon="6.16719">
        <ele>317</ele>
        <time>2011-05-28T00:57:59Z</time>
      </trkpt>
      <trkpt lat="48.56308" lon="6.16603">
        <ele>320</ele>
        <time>2011-05-28T00:58:20Z</time>
      </trkpt>
      <trkpt lat="48.5628" lon="6.16537">
        <ele>319</ele>
        <time>2011-05-28T00:58:27Z</time>
      </trkpt>
      <trkpt lat="48.56266" lon="6.16493">
        <ele>318</ele>
        <time>2011-05-28T00:58:31Z</time>
      </trkpt>
      <trkpt lat="48.56255" lon="6.16442">
        <ele>318</ele>
        <time>2011-05-28T00:58:36Z</time>
      </trkpt>
      <trkpt lat="48.56247" lon="6.16368">
        <ele>321</ele>
        <time>2011-05-28T00:58:59Z</time>
      </trkpt>
      <trkpt lat="48.56229" lon="6.16257">
        <ele>328</ele>
        <time>2011-05-28T00:59:33Z</time>
      </trkpt>
      <trkpt lat="48.56225" lon="6.16191">
        <ele>328</ele>
        <time>2011-05-28T00:59:42Z</time>
      </trkpt>
      <trkpt lat="48.56231" lon="6.161">
        <ele>330</ele>
        <time>2011-05-28T00:59:55Z</time>
      </trkpt>
      <trkpt lat="48.5622" lon="6.15769">
        <ele>325</ele>
        <time>2011-05-28T01:00:24Z</time>
      </trkpt>
      <trkpt lat="48.56223" lon="6.15643">
        <ele>320</ele>
        <time>2011-05-28T01:00:35Z</time>
      </trkpt>
      <trkpt lat="48.56237" lon="6.15541">
        <ele>317</ele>
        <time>2011-05-28T01:00:44Z</time>
      </trkpt>
      <trkpt lat="48.56252" lon="6.15476">
        <ele>315</ele>
        <time>2011-05-28T01:00:50Z</time>
      </trkpt>
      <trkpt lat="48.56265" lon="6.15447">
        <ele>314</ele>
        <time>2011-05-28T01:00:54Z</time>
      </trkpt>
      <trkpt lat="48.56369" lon="6.15303">
        <ele>308</ele>
        <time>2011-05-28T01:01:12Z</time>
      </trkpt>
      <trkpt lat="48.56424" lon="6.15237">
        <ele>305</ele>
        <time>2011-05-28T01:01:22Z</time>
      </trkpt>
      <trkpt lat="48.56443" lon="6.15208">
        <ele>305</ele>
        <time>2011-05-28T01:01:25Z</time>
      </trkpt>
      <trkpt lat="48.56494" lon="6.1509">
        <ele>299</ele>
        <time>2011-05-28T01:01:38Z</time>
      </trkpt>
      <trkpt lat="48.56505" lon="6.15072">
        <ele>298</ele>
        <time>2011-05-28T01:01:40Z</time>
      </trkpt>
      <trkpt lat="48.56544" lon="6.15028">
        <ele>295</ele>
        <time>2011-05-28T01:01:47Z</time>
      </trkpt>
      <trkpt lat="48.56561" lon="6.14993">
        <ele>294</ele>
        <time>2011-05-28T01:01:50Z</time>
      </trkpt>
      <trkpt lat="48.56559" lon="6.14927">
        <ele>294</ele>
        <time>2011-05-28T01:01:56Z</time>
      </trkpt>
      <trkpt lat="48.56543" lon="6.1485">
        <ele>294</ele>
        <time>2011-05-28T01:02:03Z</time>
      </trkpt>
      <trkpt lat="48.56504" lon="6.14723">
        <ele>294</ele>
        <time>2011-05-28T01:02:16Z</time>
      </trkpt>
      <trkpt lat="48.56493" lon="6.1467">
        <ele>294</ele>
        <time>2011-05-28T01:02:23Z</time>
      </trkpt>
      <trkpt lat="48.56483" lon="6.14563">
        <ele>296</ele>
        <time>2011-05-28T01:02:38Z</time>
      </trkpt>
      <trkpt lat="48.56481" lon="6.14431">
        <ele>297</ele>
        <time>2011-05-28T01:02:54Z</time>
      </trkpt>
      <trkpt lat="48.56461" lon="6.14332">
        <ele>298</ele>
        <time>2011-05-28T01:03:07Z</time>
      </trkpt>
      <trkpt lat="48.56459" lon="6.14298">
        <ele>297</ele>
        <time>2011-05-28T01:03:10Z</time>
      </trkpt>
      <trkpt lat="48.56463" lon="6.14226">
        <ele>297</ele>
        <time>2011-05-28T01:03:16Z</time>
      </trkpt>
      <trkpt lat="48.56487" lon="6.14128">
        <ele>297</ele>
        <time>2011-05-28T01:03:26Z</time>
      </trkpt>
      <trkpt lat="48.56513" lon="6.14061">
        <ele>296</ele>
        <time>2011-05-28T01:03:33Z</time>
      </trkpt>
      <trkpt lat="48.56514" lon="6.14042">
        <ele>296</ele>
        <time>2011-05-28T01:03:34Z</time>
      </trkpt>
      <trkpt lat="48.56511" lon="6.14022">
        <ele>296</ele>
        <time>2011-05-28T01:03:36Z</time>
      </trkpt>
      <trkpt lat="48.56484" lon="6.13935">
        <ele>296</ele>
        <time>2011-05-28T01:03:45Z</time>
      </trkpt>
      <trkpt lat="48.56474" lon="6.13873">
        <ele>295</ele>
        <time>2011-05-28T01:03:50Z</time>
      </trkpt>
      <trkpt lat="48.56467" lon="6.13818">
        <ele>295</ele>
        <time>2011-05-28T01:03:55Z</time>
      </trkpt>
      <trkpt lat="48.56468" lon="6.13747">
        <ele>295</ele>
        <time>2011-05-28T01:04:01Z</time>
      </trkpt>
      <trkpt lat="48.56561" lon="6.13039">
        <ele>289</ele>
        <time>2011-05-28T01:05:05Z</time>
      </trkpt>
      <trkpt lat="48.56561" lon="6.13039">
        <ele>289</ele>
        <time>2011-05-28T01:05:06Z</time>
      </trkpt>
      <trkpt lat="48.56571" lon="6.12937">
        <ele>286</ele>
        <time>2011-05-28T01:05:15Z</time>
      </trkpt>
      <trkpt lat="48.56577" lon="6.12906">
        <ele>286</ele>
        <time>2011-05-28T01:05:18Z</time>
      </trkpt>
      <trkpt lat="48.56577" lon="6.12892">
        <ele>286</ele>
        <time>2011-05-28T01:05:19Z</time>
      </trkpt>
      <trkpt lat="48.56574" lon="6.12887">
        <ele>285</ele>
        <time>2011-05-28T01:05:20Z</time>
      </trkpt>
      <trkpt lat="48.56518" lon="6.12809">
        <ele>284</ele>
        <time>2011-05-28T01:05:30Z</time>
      </trkpt>
      <trkpt lat="48.56434" lon="6.12671">
        <ele>282</ele>
        <time>2011-05-28T01:05:47Z</time>
      </trkpt>
      <trkpt lat="48.56393" lon="6.12589">
        <ele>276</ele>
        <time>2011-05-28T01:05:56Z</time>
      </trkpt>
      <trkpt lat="48.56343" lon="6.12464">
        <ele>269</ele>
        <time>2011-05-28T01:06:09Z</time>
      </trkpt>
      <trkpt lat="48.563" lon="6.12484">
        <ele>267</ele>
        <time>2011-05-28T01:06:15Z</time>
      </trkpt>
      <trkpt lat="48.56154" lon="6.1258">
        <ele>264</ele>
        <time>2011-05-28T01:06:36Z</time>
      </trkpt>
      <trkpt lat="48.56112" lon="6.126">
        <ele>259</ele>
        <time>2011-05-28T01:06:42Z</time>
      </trkpt>
      <trkpt lat="48.56094" lon="6.12593">
        <ele>257</ele>
        <time>2011-05-28T01:06:44Z</time>
      </trkpt>
      <trkpt lat="48.56079" lon="6.1258">
        <ele>255</ele>
        <time>2011-05-28T01:06:47Z</time>
      </trkpt>
      <trkpt lat="48.56035" lon="6.12524">
        <ele>250</ele>
        <time>2011-05-28T01:06:54Z</time>
      </trkpt>
      <trkpt lat="48.56013" lon="6.12509">
        <ele>248</ele>
        <time>2011-05-28T01:06:58Z</time>
      </trkpt>
      <trkpt lat="48.55989" lon="6.12514">
        <ele>247</ele>
        <time>2011-05-28T01:07:01Z</time>
      </trkpt>
      <trkpt lat="48.55966" lon="6.12535">
        <ele>245</ele>
        <time>2011-05-28T01:07:04Z</time>
      </trkpt>
      <trkpt lat="48.55936" lon="6.12553">
        <ele>244</ele>
        <time>2011-05-28T01:07:09Z</time>
      </trkpt>
      <trkpt lat="48.55927" lon="6.12552">
        <ele>243</ele>
        <time>2011-05-28T01:07:10Z</time>
      </trkpt>
      <trkpt lat="48.55874" lon="6.12511">
        <ele>239</ele>
        <time>2011-05-28T01:07:18Z</time>
      </trkpt>
      <trkpt lat="48.5586" lon="6.12507">
        <ele>238</ele>
        <time>2011-05-28T01:07:20Z</time>
      </trkpt>
      <trkpt lat="48.55737" lon="6.1255">
        <ele>231</ele>
        <time>2011-05-28T01:07:37Z</time>
      </trkpt>
      <trkpt lat="48.55668" lon="6.12566">
        <ele>230</ele>
        <time>2011-05-28T01:07:46Z</time>
      </trkpt>
      <trkpt lat="48.55632" lon="6.12567">
        <ele>230</ele>
        <time>2011-05-28T01:07:51Z</time>
      </trkpt>
      <trkpt lat="48.55607" lon="6.12562">
        <ele>229</ele>
        <time>2011-05-28T01:07:54Z</time>
      </trkpt>
      <trkpt lat="48.55494" lon="6.12513">
        <ele>226</ele>
        <time>2011-05-28T01:08:10Z</time>
      </trkpt>
      <trkpt lat="48.55268" lon="6.12404">
        <ele>224</ele>
        <time>2011-05-28T01:08:42Z</time>
      </trkpt>
      <trkpt lat="48.55247" lon="6.12399">
        <ele>224</ele>
        <time>2011-05-28T01:08:44Z</time>
      </trkpt>
      <trkpt lat="48.55218" lon="6.124">
        <ele>224</ele>
        <time>2011-05-28T01:08:48Z</time>
      </trkpt>
      <trkpt lat="48.55202" lon="6.1241">
        <ele>224</ele>
        <time>2011-05-28T01:08:51Z</time>
      </trkpt>
      <trkpt lat="48.55171" lon="6.12447">
        <ele>224</ele>
        <time>2011-05-28T01:08:56Z</time>
      </trkpt>
      <trkpt lat="48.55072" lon="6.1262">
        <ele>225</ele>
        <time>2011-05-28T01:09:20Z</time>
      </trkpt>
      <trkpt lat="48.55049" lon="6.12642">
        <ele>225</ele>
        <time>2011-05-28T01:09:26Z</time>
      </trkpt>
      <trkpt lat="48.5502" lon="6.12655">
        <ele>226</ele>
        <time>2011-05-28T01:09:32Z</time>
      </trkpt>
      <trkpt lat="48.5502" lon="6.12655">
        <ele>226</ele>
        <time>2011-05-28T01:09:33Z</time>
      </trkpt>
      <trkpt lat="48.54991" lon="6.12665">
        <ele>225</ele>
        <time>2011-05-28T01:09:37Z</time>
      </trkpt>
      <trkpt lat="48.5496" lon="6.12689">
        <ele>225</ele>
        <time>2011-05-28T01:09:41Z</time>
      </trkpt>
      <trkpt lat="48.54931" lon="6.12504">
        <ele>225</ele>
        <time>2011-05-28T01:09:58Z</time>
      </trkpt>
      <trkpt lat="48.54888" lon="6.12343">
        <ele>229</ele>
        <time>2011-05-28T01:10:30Z</time>
      </trkpt>
      <trkpt lat="48.54876" lon="6.12313">
        <ele>230</ele>
        <time>2011-05-28T01:10:37Z</time>
      </trkpt>
      <trkpt lat="48.54852" lon="6.12287">
        <ele>231</ele>
        <time>2011-05-28T01:10:46Z</time>
      </trkpt>
      <trkpt lat="48.54826" lon="6.12247">
        <ele>233</ele>
        <time>2011-05-28T01:10:58Z</time>
      </trkpt>
      <trkpt lat="48.54816" lon="6.12218">
        <ele>234</ele>
        <time>2011-05-28T01:11:04Z</time>
      </trkpt>
      <trkpt lat="48.54817" lon="6.12182">
        <ele>234</ele>
        <time>2011-05-28T01:11:10Z</time>
      </trkpt>
      <trkpt lat="48.54827" lon="6.12159">
        <ele>235</ele>
        <time>2011-05-28T01:11:15Z</time>
      </trkpt>
      <trkpt lat="48.54871" lon="6.1212">
        <ele>236</ele>
        <time>2011-05-28T01:11:27Z</time>
      </trkpt>
      <trkpt lat="48.5486" lon="6.12097">
        <ele>237</ele>
        <time>2011-05-28T01:11:31Z</time>
      </trkpt>
      <trkpt lat="48.54876" lon="6.12027">
        <ele>242</ele>
        <time>2011-05-28T01:11:58Z</time>
      </trkpt>
      <trkpt lat="48.54866" lon="6.11955">
        <ele>247</ele>
        <time>2011-05-28T01:12:24Z</time>
      </trkpt>
      <trkpt lat="48.54843" lon="6.11866">
        <ele>254</ele>
        <time>2011-05-28T01:13:01Z</time>
      </trkpt>
      <trkpt lat="48.54831" lon="6.11802">
        <ele>259</ele>
        <time>2011-05-28T01:13:27Z</time>
      </trkpt>
      <trkpt lat="48.54831" lon="6.11802">
        <ele>259</ele>
        <time>2011-05-28T01:13:28Z</time>
      </trkpt>
      <trkpt lat="48.54825" lon="6.11774">
        <ele>260</ele>
        <time>2011-05-28T01:13:37Z</time>
      </trkpt>
      <trkpt lat="48.54822" lon="6.11724">
        <ele>263</ele>
        <time>2011-05-28T01:13:52Z</time>
      </trkpt>
      <trkpt lat="48.54818" lon="6.11704">
        <ele>264</ele>
        <time>2011-05-28T01:13:58Z</time>
      </trkpt>
      <trkpt lat="48.5481" lon="6.11687">
        <ele>265</ele>
        <time>2011-05-28T01:14:04Z</time>
      </trkpt>
      <trkpt lat="48.5482" lon="6.1167">
        <ele>266</ele>
        <time>2011-05-28T01:14:11Z</time>
      </trkpt>
      <trkpt lat="48.54827" lon="6.11645">
        <ele>268</ele>
        <time>2011-05-28T01:14:19Z</time>
      </trkpt>
      <trkpt lat="48.54833" lon="6.11581">
        <ele>269</ele>
        <time>2011-05-28T01:14:29Z</time>
      </trkpt>
      <trkpt lat="48.5483" lon="6.11542">
        <ele>269</ele>
        <time>2011-05-28T01:14:36Z</time>
      </trkpt>
      <trkpt lat="48.54819" lon="6.11482">
        <ele>271</ele>
        <time>2011-05-28T01:14:46Z</time>
      </trkpt>
      <trkpt lat="48.54779" lon="6.11371">
        <ele>272</ele>
        <time>2011-05-28T01:15:05Z</time>
      </trkpt>
      <trkpt lat="48.54673" lon="6.11167">
        <ele>277</ele>
        <time>2011-05-28T01:15:44Z</time>
      </trkpt>
      <trkpt lat="48.54605" lon="6.11021">
        <ele>281</ele>
        <time>2011-05-28T01:16:16Z</time>
      </trkpt>
      <trkpt lat="48.54595" lon="6.10984">
        <ele>281</ele>
        <time>2011-05-28T01:16:21Z</time>
      </trkpt>
      <trkpt lat="48.54584" lon="6.1092">
        <ele>282</ele>
        <time>2011-05-28T01:16:29Z</time>
      </trkpt>
      <trkpt lat="48.54556" lon="6.10722">
        <ele>284</ele>
        <time>2011-05-28T01:16:55Z</time>
      </trkpt>
      <trkpt lat="48.54546" lon="6.10695">
        <ele>284</ele>
        <time>2011-05-28T01:16:58Z</time>
      </trkpt>
      <trkpt lat="48.54537" lon="6.10679">
        <ele>284</ele>
        <time>2011-05-28T01:16:59Z</time>
      </trkpt>
      <trkpt lat="48.54515" lon="6.10665">
        <ele>284</ele>
        <time>2011-05-28T01:17:03Z</time>
      </trkpt>
      <trkpt lat="48.54288" lon="6.10728">
        <ele>284</ele>
        <time>2011-05-28T01:17:33Z</time>
      </trkpt>
      <trkpt lat="48.5427" lon="6.10728">
        <ele>284</ele>
        <time>2011-05-28T01:17:36Z</time>
      </trkpt>
      <trkpt lat="48.54257" lon="6.10717">
        <ele>284</ele>
        <time>2011-05-28T01:17:39Z</time>
      </trkpt>
      <trkpt lat="48.54203" lon="6.10593">
        <ele>285</ele>
        <time>2011-05-28T01:17:55Z</time>
      </trkpt>
      <trkpt lat="48.54123" lon="6.10384">
        <ele>282</ele>
        <time>2011-05-28T01:18:16Z</time>
      </trkpt>
      <trkpt lat="48.54077" lon="6.10274">
        <ele>281</ele>
        <time>2011-05-28T01:18:28Z</time>
      </trkpt>
      <trkpt lat="48.54071" lon="6.10249">
        <ele>281</ele>
        <time>2011-05-28T01:18:30Z</time>
      </trkpt>
      <trkpt lat="48.54054" lon="6.10185">
        <ele>280</ele>
        <time>2011-05-28T01:18:36Z</time>
      </trkpt>
      <trkpt lat="48.5403" lon="6.10138">
        <ele>280</ele>
        <time>2011-05-28T01:18:41Z</time>
      </trkpt>
      <trkpt lat="48.54018" lon="6.10122">
        <ele>280</ele>
        <time>2011-05-28T01:18:44Z</time>
      </trkpt>
      <trkpt lat="48.53934" lon="6.10051">
        <ele>281</ele>
        <time>2011-05-28T01:19:00Z</time>
      </trkpt>
      <trkpt lat="48.53934" lon="6.10051">
        <ele>281</ele>
        <time>2011-05-28T01:19:01Z</time>
      </trkpt>
      <trkpt lat="48.53892" lon="6.10016">
        <ele>282</ele>
        <time>2011-05-28T01:19:15Z</time>
      </trkpt>
      <trkpt lat="48.53872" lon="6.09993">
        <ele>283</ele>
        <time>2011-05-28T01:19:23Z</time>
      </trkpt>
      <trkpt lat="48.53857" lon="6.09957">
        <ele>285</ele>
        <time>2011-05-28T01:19:31Z</time>
      </trkpt>
      <trkpt lat="48.53838" lon="6.09883">
        <ele>285</ele>
        <time>2011-05-28T01:19:40Z</time>
      </trkpt>
      <trkpt lat="48.53818" lon="6.09831">
        <ele>286</ele>
        <time>2011-05-28T01:19:47Z</time>
      </trkpt>
      <trkpt lat="48.53794" lon="6.09783">
        <ele>286</ele>
        <time>2011-05-28T01:19:54Z</time>
      </trkpt>
      <trkpt lat="48.53632" lon="6.09541">
        <ele>288</ele>
        <time>2011-05-28T01:20:31Z</time>
      </trkpt>
      <trkpt lat="48.53585" lon="6.09483">
        <ele>286</ele>
        <time>2011-05-28T01:20:39Z</time>
      </trkpt>
      <trkpt lat="48.53497" lon="6.0941">
        <ele>285</ele>
        <time>2011-05-28T01:20:53Z</time>
      </trkpt>
      <trkpt lat="48.53471" lon="6.09385">
        <ele>284</ele>
        <time>2011-05-28T01:20:57Z</time>
      </trkpt>
      <trkpt lat="48.53459" lon="6.09367">
        <ele>284</ele>
        <time>2011-05-28T01:20:59Z</time>
      </trkpt>
      <trkpt lat="48.5345" lon="6.09342">
        <ele>283</ele>
        <time>2011-05-28T01:21:02Z</time>
      </trkpt>
      <trkpt lat="48.53442" lon="6.09271">
        <ele>283</ele>
        <time>2011-05-28T01:21:08Z</time>
      </trkpt>
      <trkpt lat="48.53433" lon="6.09226">
        <ele>282</ele>
        <time>2011-05-28T01:21:12Z</time>
      </trkpt>
      <trkpt lat="48.53421" lon="6.09195">
        <ele>281</ele>
        <time>2011-05-28T01:21:15Z</time>
      </trkpt>
      <trkpt lat="48.5344" lon="6.09196">
        <ele>280</ele>
        <time>2011-05-28T01:21:18Z</time>
      </trkpt>
      <trkpt lat="48.53461" lon="6.09186">
        <ele>280</ele>
        <time>2011-05-28T01:21:21Z</time>
      </trkpt>
      <trkpt lat="48.53487" lon="6.09161">
        <ele>279</ele>
        <time>2011-05-28T01:21:25Z</time>
      </trkpt>
      <trkpt lat="48.535" lon="6.0914">
        <ele>279</ele>
        <time>2011-05-28T01:21:27Z</time>
      </trkpt>
      <trkpt lat="48.53535" lon="6.09067">
        <ele>275</ele>
        <time>2011-05-28T01:21:35Z</time>
      </trkpt>
      <trkpt lat="48.53573" lon="6.08964">
        <ele>271</ele>
        <time>2011-05-28T01:21:46Z</time>
      </trkpt>
      <trkpt lat="48.53607" lon="6.0889">
        <ele>267</ele>
        <time>2011-05-28T01:21:54Z</time>
      </trkpt>
      <trkpt lat="48.53637" lon="6.08786">
        <ele>262</ele>
        <time>2011-05-28T01:22:04Z</time>
      </trkpt>
      <trkpt lat="48.53646" lon="6.08743">
        <ele>264</ele>
        <time>2011-05-28T01:22:17Z</time>
      </trkpt>
      <trkpt lat="48.53651" lon="6.08695">
        <ele>266</ele>
        <time>2011-05-28T01:22:31Z</time>
      </trkpt>
      <trkpt lat="48.53642" lon="6.08613">
        <ele>271</ele>
        <time>2011-05-28T01:22:55Z</time>
      </trkpt>
      <trkpt lat="48.53601" lon="6.08484">
        <ele>274</ele>
        <time>2011-05-28T01:23:20Z</time>
      </trkpt>
      <trkpt lat="48.53581" lon="6.08326">
        <ele>275</ele>
        <time>2011-05-28T01:23:38Z</time>
      </trkpt>
      <trkpt lat="48.53569" lon="6.08275">
        <ele>274</ele>
        <time>2011-05-28T01:23:43Z</time>
      </trkpt>
      <trkpt lat="48.53524" lon="6.08118">
        <ele>272</ele>
        <time>2011-05-28T01:23:58Z</time>
      </trkpt>
      <trkpt lat="48.53503" lon="6.08056">
        <ele>270</ele>
        <time>2011-05-28T01:24:04Z</time>
      </trkpt>
      <trkpt lat="48.53472" lon="6.07983">
        <ele>268</ele>
        <time>2011-05-28T01:24:12Z</time>
      </trkpt>
      <trkpt lat="48.5343" lon="6.07926">
        <ele>268</ele>
        <time>2011-05-28T01:24:20Z</time>
      </trkpt>
      <trkpt lat="48.5339" lon="6.07885">
        <ele>268</ele>
        <time>2011-05-28T01:24:26Z</time>
      </trkpt>
      <trkpt lat="48.53377" lon="6.07862">
        <ele>268</ele>
        <time>2011-05-28T01:24:32Z</time>
      </trkpt>
      <trkpt lat="48.53372" lon="6.07827">
        <ele>269</ele>
        <time>2011-05-28T01:24:39Z</time>
      </trkpt>
      <trkpt lat="48.53379" lon="6.07762">
        <ele>271</ele>
        <time>2011-05-28T01:24:51Z</time>
      </trkpt>
      <trkpt lat="48.53377" lon="6.07735">
        <ele>272</ele>
        <time>2011-05-28T01:24:56Z</time>
      </trkpt>
      <trkpt lat="48.53363" lon="6.07686">
        <ele>272</ele>
        <time>2011-05-28T01:25:04Z</time>
      </trkpt>
      <trkpt lat="48.53272" lon="6.07431">
        <ele>277</ele>
        <time>2011-05-28T01:25:46Z</time>
      </trkpt>
      <trkpt lat="48.53264" lon="6.07396">
        <ele>277</ele>
        <time>2011-05-28T01:25:50Z</time>
      </trkpt>
      <trkpt lat="48.53255" lon="6.07323">
        <ele>277</ele>
        <time>2011-05-28T01:25:56Z</time>
      </trkpt>
      <trkpt lat="48.53231" lon="6.07232">
        <ele>277</ele>
        <time>2011-05-28T01:26:05Z</time>
      </trkpt>
      <trkpt lat="48.53181" lon="6.07104">
        <ele>279</ele>
        <time>2011-05-28T01:26:26Z</time>
      </trkpt>
      <trkpt lat="48.5321" lon="6.0704">
        <ele>280</ele>
        <time>2011-05-28T01:26:40Z</time>
      </trkpt>
      <trkpt lat="48.53224" lon="6.06986">
        <ele>282</ele>
        <time>2011-05-28T01:26:51Z</time>
      </trkpt>
      <trkpt lat="48.53225" lon="6.06953">
        <ele>283</ele>
        <time>2011-05-28T01:26:57Z</time>
      </trkpt>
      <trkpt lat="48.53222" lon="6.06928">
        <ele>283</ele>
        <time>2011-05-28T01:27:03Z</time>
      </trkpt>
      <trkpt lat="48.5321" lon="6.06894">
        <ele>285</ele>
        <time>2011-05-28T01:27:11Z</time>
      </trkpt>
      <trkpt lat="48.53145" lon="6.06747">
        <ele>291</ele>
        <time>2011-05-28T01:27:50Z</time>
      </trkpt>
      <trkpt lat="48.53128" lon="6.06695">
        <ele>289</ele>
        <time>2011-05-28T01:27:55Z</time>
      </trkpt>
      <trkpt lat="48.53127" lon="6.06669">
        <ele>289</ele>
        <time>2011-05-28T01:27:58Z</time>
      </trkpt>
      <trkpt lat="48.53145" lon="6.06646">
        <ele>288</ele>
        <time>2011-05-28T01:28:01Z</time>
      </trkpt>
      <trkpt lat="48.53165" lon="6.06636">
        <ele>287</ele>
        <time>2011-05-28T01:28:04Z</time>
      </trkpt>
      <trkpt lat="48.53179" lon="6.0662">
        <ele>287</ele>
        <time>2011-05-28T01:28:06Z</time>
      </trkpt>
      <trkpt lat="48.53198" lon="6.06583">
        <ele>283</ele>
        <time>2011-05-28T01:28:10Z</time>
      </trkpt>
      <trkpt lat="48.53238" lon="6.06481">
        <ele>276</ele>
        <time>2011-05-28T01:28:21Z</time>
      </trkpt>
      <trkpt lat="48.53264" lon="6.06445">
        <ele>274</ele>
        <time>2011-05-28T01:28:25Z</time>
      </trkpt>
      <trkpt lat="48.53298" lon="6.06432">
        <ele>272</ele>
        <time>2011-05-28T01:28:30Z</time>
      </trkpt>
      <trkpt lat="48.53313" lon="6.06436">
        <ele>271</ele>
        <time>2011-05-28T01:28:32Z</time>
      </trkpt>
      <trkpt lat="48.53384" lon="6.06484">
        <ele>268</ele>
        <time>2011-05-28T01:28:43Z</time>
      </trkpt>
      <trkpt lat="48.53395" lon="6.06486">
        <ele>267</ele>
        <time>2011-05-28T01:28:44Z</time>
      </trkpt>
      <trkpt lat="48.53437" lon="6.06464">
        <ele>266</ele>
        <time>2011-05-28T01:28:50Z</time>
      </trkpt>
      <trkpt lat="48.53473" lon="6.06436">
        <ele>265</ele>
        <time>2011-05-28T01:28:55Z</time>
      </trkpt>
      <trkpt lat="48.53535" lon="6.06374">
        <ele>262</ele>
        <time>2011-05-28T01:29:05Z</time>
      </trkpt>
      <trkpt lat="48.53551" lon="6.06351">
        <ele>262</ele>
        <time>2011-05-28T01:29:08Z</time>
      </trkpt>
      <trkpt lat="48.53565" lon="6.06307">
        <ele>262</ele>
        <time>2011-05-28T01:29:13Z</time>
      </trkpt>
      <trkpt lat="48.53599" lon="6.06235">
        <ele>262</ele>
        <time>2011-05-28T01:29:20Z</time>
      </trkpt>
      <trkpt lat="48.53647" lon="6.06186">
        <ele>262</ele>
        <time>2011-05-28T01:29:31Z</time>
      </trkpt>
      <trkpt lat="48.53724" lon="6.06136">
        <ele>264</ele>
        <time>2011-05-28T01:29:47Z</time>
      </trkpt>
      <trkpt lat="48.53751" lon="6.06111">
        <ele>265</ele>
        <time>2011-05-28T01:29:56Z</time>
      </trkpt>
      <trkpt lat="48.53912" lon="6.059">
        <ele>273</ele>
        <time>2011-05-28T01:30:56Z</time>
      </trkpt>
      <trkpt lat="48.53996" lon="6.0577">
        <ele>280</ele>
        <time>2011-05-28T01:31:40Z</time>
      </trkpt>
      <trkpt lat="48.5403" lon="6.05709">
        <ele>281</ele>
        <time>2011-05-28T01:31:54Z</time>
      </trkpt>
      <trkpt lat="48.5417" lon="6.05515">
        <ele>288</ele>
        <time>2011-05-28T01:32:45Z</time>
      </trkpt>
      <trkpt lat="48.54211" lon="6.05438">
        <ele>287</ele>
        <time>2011-05-28T01:32:53Z</time>
      </trkpt>
      <trkpt lat="48.54228" lon="6.05389">
        <ele>287</ele>
        <time>2011-05-28T01:32:58Z</time>
      </trkpt>
      <trkpt lat="48.54256" lon="6.05275">
        <ele>288</ele>
        <time>2011-05-28T01:33:15Z</time>
      </trkpt>
      <trkpt lat="48.54269" lon="6.05235">
        <ele>289</ele>
        <time>2011-05-28T01:33:21Z</time>
      </trkpt>
      <trkpt lat="48.54307" lon="6.05147">
        <ele>291</ele>
        <time>2011-05-28T01:33:40Z</time>
      </trkpt>
      <trkpt lat="48.54309" lon="6.05135">
        <ele>291</ele>
        <time>2011-05-28T01:33:42Z</time>
      </trkpt>
      <trkpt lat="48.54266" lon="6.05012">
        <ele>295</ele>
        <time>2011-05-28T01:34:08Z</time>
      </trkpt>
      <trkpt lat="48.54262" lon="6.04983">
        <ele>296</ele>
        <time>2011-05-28T01:34:14Z</time>
      </trkpt>
      <trkpt lat="48.54262" lon="6.04983">
        <ele>296</ele>
        <time>2011-05-28T01:34:15Z</time>
      </trkpt>
      <trkpt lat="48.54257" lon="6.04917">
        <ele>297</ele>
        <time>2011-05-28T01:34:29Z</time>
      </trkpt>
      <trkpt lat="48.54258" lon="6.04864">
        <ele>299</ele>
        <time>2011-05-28T01:34:40Z</time>
      </trkpt>
      <trkpt lat="48.54265" lon="6.04814">
        <ele>301</ele>
        <time>2011-05-28T01:34:50Z</time>
      </trkpt>
      <trkpt lat="48.54291" lon="6.04741">
        <ele>305</ele>
        <time>2011-05-28T01:35:17Z</time>
      </trkpt>
      <trkpt lat="48.54313" lon="6.04703">
        <ele>308</ele>
        <time>2011-05-28T01:35:34Z</time>
      </trkpt>
      <trkpt lat="48.54324" lon="6.04694">
        <ele>310</ele>
        <time>2011-05-28T01:35:40Z</time>
      </trkpt>
      <trkpt lat="48.54357" lon="6.04745">
        <ele>311</ele>
        <time>2011-05-28T01:35:52Z</time>
      </trkpt>
      <trkpt lat="48.5438" lon="6.04766">
        <ele>312</ele>
        <time>2011-05-28T01:35:59Z</time>
      </trkpt>
      <trkpt lat="48.54458" lon="6.04784">
        <ele>315</ele>
        <time>2011-05-28T01:36:20Z</time>
      </trkpt>
      <trkpt lat="48.54529" lon="6.04808">
        <ele>315</ele>
        <time>2011-05-28T01:36:34Z</time>
      </trkpt>
      <trkpt lat="48.54604" lon="6.04847">
        <ele>317</ele>
        <time>2011-05-28T01:36:48Z</time>
      </trkpt>
      <trkpt lat="48.54671" lon="6.04889">
        <ele>316</ele>
        <time>2011-05-28T01:36:58Z</time>
      </trkpt>
      <trkpt lat="48.54743" lon="6.04956">
        <ele>315</ele>
        <time>2011-05-28T01:37:09Z</time>
      </trkpt>
      <trkpt lat="48.54776" lon="6.04856">
        <ele>322</ele>
        <time>2011-05-28T01:37:51Z</time>
      </trkpt>
      <trkpt lat="48.54812" lon="6.04773">
        <ele>330</ele>
        <time>2011-05-28T01:38:28Z</time>
      </trkpt>
      <trkpt lat="48.54828" lon="6.04779">
        <ele>330</ele>
        <time>2011-05-28T01:38:31Z</time>
      </trkpt>
      <trkpt lat="48.54881" lon="6.04764">
        <ele>330</ele>
        <time>2011-05-28T01:38:40Z</time>
      </trkpt>
      <trkpt lat="48.54938" lon="6.04763">
        <ele>331</ele>
        <time>2011-05-28T01:38:49Z</time>
      </trkpt>
      <trkpt lat="48.54948" lon="6.04759">
        <ele>331</ele>
        <time>2011-05-28T01:38:54Z</time>
      </trkpt>
      <trkpt lat="48.54952" lon="6.04737">
        <ele>333</ele>
        <time>2011-05-28T01:39:01Z</time>
      </trkpt>
      <trkpt lat="48.54948" lon="6.04719">
        <ele>334</ele>
        <time>2011-05-28T01:39:07Z</time>
      </trkpt>
      <trkpt lat="48.54933" lon="6.04705">
        <ele>335</ele>
        <time>2011-05-28T01:39:15Z</time>
      </trkpt>
      <trkpt lat="48.54859" lon="6.04681">
        <ele>342</ele>
        <time>2011-05-28T01:39:51Z</time>
      </trkpt>
      <trkpt lat="48.54841" lon="6.04671">
        <ele>343</ele>
        <time>2011-05-28T01:39:58Z</time>
      </trkpt>
      <trkpt lat="48.54824" lon="6.04653">
        <ele>344</ele>
        <time>2011-05-28T01:40:06Z</time>
      </trkpt>
      <trkpt lat="48.54799" lon="6.04616">
        <ele>346</ele>
        <time>2011-05-28T01:40:20Z</time>
      </trkpt>
      <trkpt lat="48.54747" lon="6.04521">
        <ele>352</ele>
        <time>2011-05-28T01:40:52Z</time>
      </trkpt>
      <trkpt lat="48.54593" lon="6.043">
        <ele>368</ele>
        <time>2011-05-28T01:42:24Z</time>
      </trkpt>
      <trkpt lat="48.54545" lon="6.04219">
        <ele>371</ele>
        <time>2011-05-28T01:42:46Z</time>
      </trkpt>
      <trkpt lat="48.54521" lon="6.04158">
        <ele>373</ele>
        <time>2011-05-28T01:43:00Z</time>
      </trkpt>
      <trkpt lat="48.54506" lon="6.04101">
        <ele>377</ele>
        <time>2011-05-28T01:43:23Z</time>
      </trkpt>
      <trkpt lat="48.54496" lon="6.04037">
        <ele>382</ele>
        <time>2011-05-28T01:43:48Z</time>
      </trkpt>
      <trkpt lat="48.54487" lon="6.03973">
        <ele>387</ele>
        <time>2011-05-28T01:44:13Z</time>
      </trkpt>
      <trkpt lat="48.54484" lon="6.03924">
        <ele>390</ele>
        <time>2011-05-28T01:44:30Z</time>
      </trkpt>
      <trkpt lat="48.54489" lon="6.03848">
        <ele>395</ele>
        <time>2011-05-28T01:44:56Z</time>
      </trkpt>
      <trkpt lat="48.54498" lon="6.03804">
        <ele>398</ele>
        <time>2011-05-28T01:45:12Z</time>
      </trkpt>
      <trkpt lat="48.54575" lon="6.03523">
        <ele>408</ele>
        <time>2011-05-28T01:46:19Z</time>
      </trkpt>
      <trkpt lat="48.54617" lon="6.03425">
        <ele>411</ele>
        <time>2011-05-28T01:46:43Z</time>
      </trkpt>
      <trkpt lat="48.54651" lon="6.0336">
        <ele>414</ele>
        <time>2011-05-28T01:47:01Z</time>
      </trkpt>
      <trkpt lat="48.54684" lon="6.03312">
        <ele>416</ele>
        <time>2011-05-28T01:47:16Z</time>
      </trkpt>
      <trkpt lat="48.54706" lon="6.0329">
        <ele>417</ele>
        <time>2011-05-28T01:47:26Z</time>
      </trkpt>
      <trkpt lat="48.54798" lon="6.03239">
        <ele>423</ele>
        <time>2011-05-28T01:47:59Z</time>
      </trkpt>
      <trkpt lat="48.5483" lon="6.03216">
        <ele>422</ele>
        <time>2011-05-28T01:48:04Z</time>
      </trkpt>
      <trkpt lat="48.54891" lon="6.03143">
        <ele>422</ele>
        <time>2011-05-28T01:48:15Z</time>
      </trkpt>
      <trkpt lat="48.54913" lon="6.03099">
        <ele>422</ele>
        <time>2011-05-28T01:48:20Z</time>
      </trkpt>
      <trkpt lat="48.54928" lon="6.03058">
        <ele>422</ele>
        <time>2011-05-28T01:48:25Z</time>
      </trkpt>
      <trkpt lat="48.5496" lon="6.02927">
        <ele>423</ele>
        <time>2011-05-28T01:48:40Z</time>
      </trkpt>
      <trkpt lat="48.54986" lon="6.0277">
        <ele>428</ele>
        <time>2011-05-28T01:49:14Z</time>
      </trkpt>
      <trkpt lat="48.55015" lon="6.02641">
        <ele>434</ele>
        <time>2011-05-28T01:49:50Z</time>
      </trkpt>
      <trkpt lat="48.55034" lon="6.02576">
        <ele>435</ele>
        <time>2011-05-28T01:50:03Z</time>
      </trkpt>
      <trkpt lat="48.55039" lon="6.02548">
        <ele>436</ele>
        <time>2011-05-28T01:50:08Z</time>
      </trkpt>
      <trkpt lat="48.55045" lon="6.02465">
        <ele>438</ele>
        <time>2011-05-28T01:50:22Z</time>
      </trkpt>
      <trkpt lat="48.5507" lon="6.01987">
        <ele>439</ele>
        <time>2011-05-28T01:51:09Z</time>
      </trkpt>
      <trkpt lat="48.5507" lon="6.01772">
        <ele>437</ele>
        <time>2011-05-28T01:51:28Z</time>
      </trkpt>
      <trkpt lat="48.55084" lon="6.01393">
        <ele>426</ele>
        <time>2011-05-28T01:52:01Z</time>
      </trkpt>
      <trkpt lat="48.55098" lon="6.01229">
        <ele>420</ele>
        <time>2011-05-28T01:52:16Z</time>
      </trkpt>
      <trkpt lat="48.55111" lon="6.01122">
        <ele>415</ele>
        <time>2011-05-28T01:52:26Z</time>
      </trkpt>
      <trkpt lat="48.55119" lon="6.01069">
        <ele>414</ele>
        <time>2011-05-28T01:52:31Z</time>
      </trkpt>
      <trkpt lat="48.55143" lon="6.00974">
        <ele>411</ele>
        <time>2011-05-28T01:52:39Z</time>
      </trkpt>
      <trkpt lat="48.55145" lon="6.00943">
        <ele>410</ele>
        <time>2011-05-28T01:52:42Z</time>
      </trkpt>
      <trkpt lat="48.55136" lon="6.00813">
        <ele>407</ele>
        <time>2011-05-28T01:52:54Z</time>
      </trkpt>
      <trkpt lat="48.55136" lon="6.00754">
        <ele>405</ele>
        <time>2011-05-28T01:52:59Z</time>
      </trkpt>
      <trkpt lat="48.55148" lon="6.00527">
        <ele>399</ele>
        <time>2011-05-28T01:53:19Z</time>
      </trkpt>
      <trkpt lat="48.5516" lon="6.00444">
        <ele>395</ele>
        <time>2011-05-28T01:53:27Z</time>
      </trkpt>
      <trkpt lat="48.55177" lon="6.00381">
        <ele>393</ele>
        <time>2011-05-28T01:53:33Z</time>
      </trkpt>
      <trkpt lat="48.55242" lon="6.0019">
        <ele>385</ele>
        <time>2011-05-28T01:53:52Z</time>
      </trkpt>
      <trkpt lat="48.55242" lon="6.0019">
        <ele>385</ele>
        <time>2011-05-28T01:53:53Z</time>
      </trkpt>
      <trkpt lat="48.5536" lon="5.99847">
        <ele>375</ele>
        <time>2011-05-28T01:54:27Z</time>
      </trkpt>
      <trkpt lat="48.55377" lon="5.99822">
        <ele>376</ele>
        <time>2011-05-28T01:54:34Z</time>
      </trkpt>
      <trkpt lat="48.55441" lon="5.99957">
        <ele>381</ele>
        <time>2011-05-28T01:55:09Z</time>
      </trkpt>
      <trkpt lat="48.55454" lon="5.99995">
        <ele>382</ele>
        <time>2011-05-28T01:55:17Z</time>
      </trkpt>
      <trkpt lat="48.55468" lon="6.00067">
        <ele>384</ele>
        <time>2011-05-28T01:55:32Z</time>
      </trkpt>
      <trkpt lat="48.55485" lon="6.00128">
        <ele>386</ele>
        <time>2011-05-28T01:55:45Z</time>
      </trkpt>
      <trkpt lat="48.55489" lon="6.00168">
        <ele>386</ele>
        <time>2011-05-28T01:55:51Z</time>
      </trkpt>
      <trkpt lat="48.55488" lon="6.00293">
        <ele>388</ele>
        <time>2011-05-28T01:56:08Z</time>
      </trkpt>
      <trkpt lat="48.5549" lon="6.00321">
        <ele>387</ele>
        <time>2011-05-28T01:56:10Z</time>
      </trkpt>
      <trkpt lat="48.55496" lon="6.00345">
        <ele>387</ele>
        <time>2011-05-28T01:56:12Z</time>
      </trkpt>
      <trkpt lat="48.55521" lon="6.00404">
        <ele>386</ele>
        <time>2011-05-28T01:56:19Z</time>
      </trkpt>
      <trkpt lat="48.5555" lon="6.00452">
        <ele>386</ele>
        <time>2011-05-28T01:56:24Z</time>
      </trkpt>
      <trkpt lat="48.55573" lon="6.00479">
        <ele>384</ele>
        <time>2011-05-28T01:56:28Z</time>
      </trkpt>
      <trkpt lat="48.55617" lon="6.0052">
        <ele>381</ele>
        <time>2011-05-28T01:56:35Z</time>
      </trkpt>
      <trkpt lat="48.5571" lon="6.00574">
        <ele>377</ele>
        <time>2011-05-28T01:56:48Z</time>
      </trkpt>
      <trkpt lat="48.5584" lon="6.00605">
        <ele>379</ele>
        <time>2011-05-28T01:57:14Z</time>
      </trkpt>
      <trkpt lat="48.56009" lon="6.00685">
        <ele>385</ele>
        <time>2011-05-28T01:58:02Z</time>
      </trkpt>
      <trkpt lat="48.56137" lon="6.00727">
        <ele>384</ele>
        <time>2011-05-28T01:58:19Z</time>
      </trkpt>
      <trkpt lat="48.56156" lon="6.00741">
        <ele>384</ele>
        <time>2011-05-28T01:58:25Z</time>
      </trkpt>
      <trkpt lat="48.56161" lon="6.0075">
        <ele>384</ele>
        <time>2011-05-28T01:58:27Z</time>
      </trkpt>
      <trkpt lat="48.56208" lon="6.00922">
        <ele>389</ele>
        <time>2011-05-28T01:58:59Z</time>
      </trkpt>
      <trkpt lat="48.56241" lon="6.00989">
        <ele>389</ele>
        <time>2011-05-28T01:59:09Z</time>
      </trkpt>
      <trkpt lat="48.56268" lon="6.01028">
        <ele>390</ele>
        <time>2011-05-28T01:59:16Z</time>
      </trkpt>
      <trkpt lat="48.56338" lon="6.01107">
        <ele>390</ele>
        <time>2011-05-28T01:59:28Z</time>
      </trkpt>
      <trkpt lat="48.56459" lon="6.01229">
        <ele>390</ele>
        <time>2011-05-28T01:59:47Z</time>
      </trkpt>
      <trkpt lat="48.56509" lon="6.01263">
        <ele>386</ele>
        <time>2011-05-28T01:59:54Z</time>
      </trkpt>
      <trkpt lat="48.56578" lon="6.01288">
        <ele>383</ele>
        <time>2011-05-28T02:00:04Z</time>
      </trkpt>
      <trkpt lat="48.56612" lon="6.01319">
        <ele>381</ele>
        <time>2011-05-28T02:00:09Z</time>
      </trkpt>
      <trkpt lat="48.56858" lon="6.01674">
        <ele>370</ele>
        <time>2011-05-28T02:00:54Z</time>
      </trkpt>
      <trkpt lat="48.56878" lon="6.01695">
        <ele>369</ele>
        <time>2011-05-28T02:00:58Z</time>
      </trkpt>
      <trkpt lat="48.57431" lon="6.02162">
        <ele>350</ele>
        <time>2011-05-28T02:02:22Z</time>
      </trkpt>
      <trkpt lat="48.57454" lon="6.02174">
        <ele>348</ele>
        <time>2011-05-28T02:02:26Z</time>
      </trkpt>
      <trkpt lat="48.57543" lon="6.02189">
        <ele>342</ele>
        <time>2011-05-28T02:02:38Z</time>
      </trkpt>
      <trkpt lat="48.57613" lon="6.02214">
        <ele>338</ele>
        <time>2011-05-28T02:02:47Z</time>
      </trkpt>
      <trkpt lat="48.5778" lon="6.02401">
        <ele>328</ele>
        <time>2011-05-28T02:03:15Z</time>
      </trkpt>
      <trkpt lat="48.5778" lon="6.02401">
        <ele>328</ele>
        <time>2011-05-28T02:03:16Z</time>
      </trkpt>
      <trkpt lat="48.57927" lon="6.02543">
        <ele>321</ele>
        <time>2011-05-28T02:03:39Z</time>
      </trkpt>
      <trkpt lat="48.58004" lon="6.02631">
        <ele>317</ele>
        <time>2011-05-28T02:03:52Z</time>
      </trkpt>
      <trkpt lat="48.58077" lon="6.02704">
        <ele>314</ele>
        <time>2011-05-28T02:04:04Z</time>
      </trkpt>
      <trkpt lat="48.58074" lon="6.02732">
        <ele>314</ele>
        <time>2011-05-28T02:04:06Z</time>
      </trkpt>
      <trkpt lat="48.58035" lon="6.029">
        <ele>321</ele>
        <time>2011-05-28T02:04:50Z</time>
      </trkpt>
      <trkpt lat="48.58038" lon="6.02927">
        <ele>319</ele>
        <time>2011-05-28T02:04:52Z</time>
      </trkpt>
      <trkpt lat="48.57962" lon="6.03185">
        <ele>305</ele>
        <time>2011-05-28T02:05:17Z</time>
      </trkpt>
      <trkpt lat="48.5795" lon="6.03252">
        <ele>299</ele>
        <time>2011-05-28T02:05:24Z</time>
      </trkpt>
      <trkpt lat="48.57938" lon="6.03379">
        <ele>290</ele>
        <time>2011-05-28T02:05:35Z</time>
      </trkpt>
      <trkpt lat="48.57937" lon="6.03437">
        <ele>287</ele>
        <time>2011-05-28T02:05:40Z</time>
      </trkpt>
      <trkpt lat="48.5795" lon="6.03608">
        <ele>279</ele>
        <time>2011-05-28T02:05:55Z</time>
      </trkpt>
      <trkpt lat="48.57972" lon="6.03745">
        <ele>275</ele>
        <time>2011-05-28T02:06:08Z</time>
      </trkpt>
      <trkpt lat="48.58012" lon="6.04044">
        <ele>262</ele>
        <time>2011-05-28T02:06:35Z</time>
      </trkpt>
      <trkpt lat="48.57989" lon="6.04052">
        <ele>262</ele>
        <time>2011-05-28T02:06:42Z</time>
      </trkpt>
      <trkpt lat="48.57967" lon="6.04045">
        <ele>263</ele>
        <time>2011-05-28T02:06:48Z</time>
      </trkpt>
      <trkpt lat="48.57956" lon="6.04034">
        <ele>264</ele>
        <time>2011-05-28T02:06:52Z</time>
      </trkpt>
      <trkpt lat="48.57949" lon="6.03989">
        <ele>265</ele>
        <time>2011-05-28T02:07:01Z</time>
      </trkpt>
      <trkpt lat="48.57948" lon="6.03892">
        <ele>268</ele>
        <time>2011-05-28T02:07:19Z</time>
      </trkpt>
      <trkpt lat="48.57933" lon="6.03767">
        <ele>272</ele>
        <time>2011-05-28T02:07:48Z</time>
      </trkpt>
      <trkpt lat="48.57914" lon="6.03724">
        <ele>274</ele>
        <time>2011-05-28T02:07:59Z</time>
      </trkpt>
      <trkpt lat="48.57849" lon="6.03627">
        <ele>275</ele>
        <time>2011-05-28T02:08:15Z</time>
      </trkpt>
      <trkpt lat="48.57837" lon="6.03625">
        <ele>274</ele>
        <time>2011-05-28T02:08:17Z</time>
      </trkpt>
      <trkpt lat="48.57826" lon="6.0363">
        <ele>273</ele>
        <time>2011-05-28T02:08:18Z</time>
      </trkpt>
      <trkpt lat="48.57679" lon="6.03803">
        <ele>263</ele>
        <time>2011-05-28T02:08:43Z</time>
      </trkpt>
      <trkpt lat="48.57668" lon="6.03832">
        <ele>263</ele>
        <time>2011-05-28T02:08:47Z</time>
      </trkpt>
      <trkpt lat="48.57633" lon="6.03958">
        <ele>264</ele>
        <time>2011-05-28T02:09:02Z</time>
      </trkpt>
      <trkpt lat="48.57622" lon="6.03984">
        <ele>265</ele>
        <time>2011-05-28T02:09:09Z</time>
      </trkpt>
      <trkpt lat="48.57561" lon="6.0409">
        <ele>270</ele>
        <time>2011-05-28T02:09:41Z</time>
      </trkpt>
      <trkpt lat="48.5754" lon="6.04112">
        <ele>270</ele>
        <time>2011-05-28T02:09:47Z</time>
      </trkpt>
      <trkpt lat="48.57515" lon="6.04119">
        <ele>271</ele>
        <time>2011-05-28T02:09:52Z</time>
      </trkpt>
      <trkpt lat="48.57494" lon="6.04109">
        <ele>271</ele>
        <time>2011-05-28T02:09:57Z</time>
      </trkpt>
      <trkpt lat="48.57405" lon="6.03969">
        <ele>274</ele>
        <time>2011-05-28T02:10:24Z</time>
      </trkpt>
      <trkpt lat="48.57377" lon="6.03933">
        <ele>274</ele>
        <time>2011-05-28T02:10:32Z</time>
      </trkpt>
      <trkpt lat="48.57212" lon="6.03771">
        <ele>279</ele>
        <time>2011-05-28T02:11:16Z</time>
      </trkpt>
      <trkpt lat="48.57183" lon="6.03753">
        <ele>279</ele>
        <time>2011-05-28T02:11:21Z</time>
      </trkpt>
      <trkpt lat="48.57155" lon="6.03752">
        <ele>279</ele>
        <time>2011-05-28T02:11:26Z</time>
      </trkpt>
      <trkpt lat="48.57112" lon="6.03766">
        <ele>280</ele>
        <time>2011-05-28T02:11:33Z</time>
      </trkpt>
      <trkpt lat="48.57034" lon="6.03811">
        <ele>279</ele>
        <time>2011-05-28T02:11:45Z</time>
      </trkpt>
      <trkpt lat="48.56895" lon="6.03858">
        <ele>278</ele>
        <time>2011-05-28T02:12:04Z</time>
      </trkpt>
      <trkpt lat="48.56859" lon="6.03912">
        <ele>277</ele>
        <time>2011-05-28T02:12:10Z</time>
      </trkpt>
      <trkpt lat="48.56835" lon="6.03937">
        <ele>276</ele>
        <time>2011-05-28T02:12:14Z</time>
      </trkpt>
      <trkpt lat="48.56716" lon="6.04005">
        <ele>275</ele>
        <time>2011-05-28T02:12:31Z</time>
      </trkpt>
      <trkpt lat="48.56677" lon="6.04058">
        <ele>272</ele>
        <time>2011-05-28T02:12:38Z</time>
      </trkpt>
      <trkpt lat="48.56659" lon="6.04076">
        <ele>271</ele>
        <time>2011-05-28T02:12:41Z</time>
      </trkpt>
      <trkpt lat="48.5655" lon="6.04118">
        <ele>266</ele>
        <time>2011-05-28T02:12:56Z</time>
      </trkpt>
      <trkpt lat="48.5653" lon="6.04134">
        <ele>265</ele>
        <time>2011-05-28T02:12:59Z</time>
      </trkpt>
      <trkpt lat="48.56463" lon="6.04212">
        <ele>265</ele>
        <time>2011-05-28T02:13:10Z</time>
      </trkpt>
      <trkpt lat="48.56441" lon="6.04229">
        <ele>266</ele>
        <time>2011-05-28T02:13:18Z</time>
      </trkpt>
      <trkpt lat="48.56381" lon="6.0426">
        <ele>269</ele>
        <time>2011-05-28T02:13:38Z</time>
      </trkpt>
      <trkpt lat="48.56381" lon="6.0426">
        <ele>269</ele>
        <time>2011-05-28T02:13:39Z</time>
      </trkpt>
      <trkpt lat="48.56274" lon="6.04343">
        <ele>274</ele>
        <time>2011-05-28T02:14:15Z</time>
      </trkpt>
      <trkpt lat="48.56258" lon="6.04351">
        <ele>274</ele>
        <time>2011-05-28T02:14:18Z</time>
      </trkpt>
      <trkpt lat="48.56231" lon="6.04354">
        <ele>274</ele>
        <time>2011-05-28T02:14:24Z</time>
      </trkpt>
      <trkpt lat="48.56189" lon="6.04344">
        <ele>275</ele>
        <time>2011-05-28T02:14:32Z</time>
      </trkpt>
      <trkpt lat="48.56137" lon="6.04319">
        <ele>276</ele>
        <time>2011-05-28T02:14:42Z</time>
      </trkpt>
      <trkpt lat="48.56072" lon="6.04267">
        <ele>276</ele>
        <time>2011-05-28T02:14:55Z</time>
      </trkpt>
      <trkpt lat="48.56053" lon="6.04259">
        <ele>277</ele>
        <time>2011-05-28T02:14:59Z</time>
      </trkpt>
      <trkpt lat="48.56037" lon="6.04299">
        <ele>277</ele>
        <time>2011-05-28T02:15:03Z</time>
      </trkpt>
      <trkpt lat="48.56034" lon="6.04468">
        <ele>277</ele>
        <time>2011-05-28T02:15:18Z</time>
      </trkpt>
      <trkpt lat="48.56022" lon="6.04572">
        <ele>280</ele>
        <time>2011-05-28T02:15:42Z</time>
      </trkpt>
      <trkpt lat="48.56008" lon="6.04636">
        <ele>283</ele>
        <time>2011-05-28T02:15:57Z</time>
      </trkpt>
      <trkpt lat="48.55983" lon="6.04696">
        <ele>283</ele>
        <time>2011-05-28T02:16:05Z</time>
      </trkpt>
      <trkpt lat="48.55952" lon="6.0475">
        <ele>284</ele>
        <time>2011-05-28T02:16:14Z</time>
      </trkpt>
      <trkpt lat="48.55801" lon="6.04942">
        <ele>274</ele>
        <time>2011-05-28T02:16:40Z</time>
      </trkpt>
      <trkpt lat="48.5572" lon="6.05002">
        <ele>278</ele>
        <time>2011-05-28T02:17:08Z</time>
      </trkpt>
      <trkpt lat="48.55627" lon="6.05052">
        <ele>278</ele>
        <time>2011-05-28T02:17:21Z</time>
      </trkpt>
      <trkpt lat="48.55586" lon="6.05065">
        <ele>277</ele>
        <time>2011-05-28T02:17:27Z</time>
      </trkpt>
      <trkpt lat="48.55513" lon="6.05073">
        <ele>277</ele>
        <time>2011-05-28T02:17:37Z</time>
      </trkpt>
      <trkpt lat="48.55468" lon="6.05088">
        <ele>278</ele>
        <time>2011-05-28T02:17:47Z</time>
      </trkpt>
      <trkpt lat="48.55445" lon="6.05115">
        <ele>278</ele>
        <time>2011-05-28T02:17:53Z</time>
      </trkpt>
      <trkpt lat="48.55408" lon="6.05183">
        <ele>280</ele>
        <time>2011-05-28T02:18:06Z</time>
      </trkpt>
      <trkpt lat="48.55389" lon="6.05206">
        <ele>280</ele>
        <time>2011-05-28T02:18:10Z</time>
      </trkpt>
      <trkpt lat="48.55365" lon="6.05226">
        <ele>280</ele>
        <time>2011-05-28T02:18:15Z</time>
      </trkpt>
      <trkpt lat="48.55286" lon="6.05265">
        <ele>281</ele>
        <time>2011-05-28T02:18:28Z</time>
      </trkpt>
      <trkpt lat="48.55146" lon="6.05305">
        <ele>280</ele>
        <time>2011-05-28T02:18:47Z</time>
      </trkpt>
      <trkpt lat="48.55106" lon="6.05311">
        <ele>281</ele>
        <time>2011-05-28T02:18:58Z</time>
      </trkpt>
      <trkpt lat="48.55065" lon="6.05308">
        <ele>282</ele>
        <time>2011-05-28T02:19:09Z</time>
      </trkpt>
      <trkpt lat="48.54964" lon="6.05288">
        <ele>286</ele>
        <time>2011-05-28T02:19:36Z</time>
      </trkpt>
      <trkpt lat="48.54895" lon="6.05264">
        <ele>284</ele>
        <time>2011-05-28T02:19:45Z</time>
      </trkpt>
      <trkpt lat="48.54891" lon="6.05301">
        <ele>283</ele>
        <time>2011-05-28T02:19:49Z</time>
      </trkpt>
      <trkpt lat="48.54918" lon="6.05403">
        <ele>282</ele>
        <time>2011-05-28T02:19:58Z</time>
      </trkpt>
      <trkpt lat="48.54954" lon="6.05488">
        <ele>281</ele>
        <time>2011-05-28T02:20:07Z</time>
      </trkpt>
      <trkpt lat="48.55113" lon="6.05911">
        <ele>277</ele>
        <time>2011-05-28T02:20:50Z</time>
      </trkpt>
      <trkpt lat="48.55178" lon="6.06054">
        <ele>278</ele>
        <time>2011-05-28T02:21:10Z</time>
      </trkpt>
      <trkpt lat="48.55182" lon="6.06075">
        <ele>278</ele>
        <time>2011-05-28T02:21:12Z</time>
      </trkpt>
      <trkpt lat="48.55181" lon="6.06126">
        <ele>278</ele>
        <time>2011-05-28T02:21:16Z</time>
      </trkpt>
      <trkpt lat="48.55175" lon="6.06172">
        <ele>278</ele>
        <time>2011-05-28T02:21:20Z</time>
      </trkpt>
      <trkpt lat="48.55173" lon="6.06231">
        <ele>278</ele>
        <time>2011-05-28T02:21:25Z</time>
      </trkpt>
      <trkpt lat="48.55184" lon="6.06298">
        <ele>277</ele>
        <time>2011-05-28T02:21:32Z</time>
      </trkpt>
      <trkpt lat="48.55194" lon="6.06322">
        <ele>276</ele>
        <time>2011-05-28T02:21:34Z</time>
      </trkpt>
      <trkpt lat="48.55224" lon="6.06367">
        <ele>276</ele>
        <time>2011-05-28T02:21:40Z</time>
      </trkpt>
      <trkpt lat="48.55328" lon="6.06488">
        <ele>274</ele>
        <time>2011-05-28T02:21:57Z</time>
      </trkpt>
      <trkpt lat="48.5537" lon="6.0655">
        <ele>273</ele>
        <time>2011-05-28T02:22:05Z</time>
      </trkpt>
      <trkpt lat="48.55415" lon="6.06632">
        <ele>272</ele>
        <time>2011-05-28T02:22:14Z</time>
      </trkpt>
      <trkpt lat="48.55457" lon="6.0674">
        <ele>270</ele>
        <time>2011-05-28T02:22:26Z</time>
      </trkpt>
      <trkpt lat="48.5546" lon="6.06762">
        <ele>270</ele>
        <time>2011-05-28T02:22:28Z</time>
      </trkpt>
      <trkpt lat="48.55457" lon="6.06812">
        <ele>269</ele>
        <time>2011-05-28T02:22:32Z</time>
      </trkpt>
      <trkpt lat="48.55449" lon="6.06869">
        <ele>269</ele>
        <time>2011-05-28T02:22:37Z</time>
      </trkpt>
      <trkpt lat="48.55263" lon="6.07839">
        <ele>261</ele>
        <time>2011-05-28T02:24:06Z</time>
      </trkpt>
      <trkpt lat="48.5526" lon="6.07874">
        <ele>261</ele>
        <time>2011-05-28T02:24:10Z</time>
      </trkpt>
      <trkpt lat="48.55263" lon="6.07897">
        <ele>261</ele>
        <time>2011-05-28T02:24:12Z</time>
      </trkpt>
      <trkpt lat="48.55277" lon="6.07943">
        <ele>261</ele>
        <time>2011-05-28T02:24:16Z</time>
      </trkpt>
      <trkpt lat="48.55304" lon="6.08012">
        <ele>261</ele>
        <time>2011-05-28T02:24:23Z</time>
      </trkpt>
      <trkpt lat="48.5541" lon="6.08251">
        <ele>260</ele>
        <time>2011-05-28T02:24:49Z</time>
      </trkpt>
      <trkpt lat="48.55423" lon="6.08279">
        <ele>260</ele>
        <time>2011-05-28T02:24:52Z</time>
      </trkpt>
      <trkpt lat="48.5552" lon="6.08424">
        <ele>260</ele>
        <time>2011-05-28T02:25:10Z</time>
      </trkpt>
      <trkpt lat="48.55533" lon="6.08467">
        <ele>260</ele>
        <time>2011-05-28T02:25:16Z</time>
      </trkpt>
      <trkpt lat="48.55534" lon="6.08482">
        <ele>260</ele>
        <time>2011-05-28T02:25:18Z</time>
      </trkpt>
      <trkpt lat="48.55565" lon="6.08523">
        <ele>261</ele>
        <time>2011-05-28T02:25:25Z</time>
      </trkpt>
      <trkpt lat="48.5561" lon="6.08613">
        <ele>262</ele>
        <time>2011-05-28T02:25:39Z</time>
      </trkpt>
      <trkpt lat="48.55698" lon="6.0876">
        <ele>263</ele>
        <time>2011-05-28T02:26:00Z</time>
      </trkpt>
      <trkpt lat="48.55732" lon="6.08813">
        <ele>262</ele>
        <time>2011-05-28T02:26:07Z</time>
      </trkpt>
      <trkpt lat="48.55867" lon="6.08997">
        <ele>262</ele>
        <time>2011-05-28T02:26:31Z</time>
      </trkpt>
      <trkpt lat="48.55915" lon="6.09084">
        <ele>260</ele>
        <time>2011-05-28T02:26:41Z</time>
      </trkpt>
      <trkpt lat="48.55939" lon="6.09117">
        <ele>260</ele>
        <time>2011-05-28T02:26:46Z</time>
      </trkpt>
      <trkpt lat="48.56025" lon="6.09214">
        <ele>258</ele>
        <time>2011-05-28T02:27:00Z</time>
      </trkpt>
      <trkpt lat="48.56168" lon="6.09422">
        <ele>257</ele>
        <time>2011-05-28T02:27:26Z</time>
      </trkpt>
      <trkpt lat="48.56246" lon="6.09524">
        <ele>259</ele>
        <time>2011-05-28T02:27:48Z</time>
      </trkpt>
      <trkpt lat="48.56253" lon="6.09545">
        <ele>259</ele>
        <time>2011-05-28T02:27:51Z</time>
      </trkpt>
      <trkpt lat="48.56255" lon="6.09568">
        <ele>259</ele>
        <time>2011-05-28T02:27:53Z</time>
      </trkpt>
      <trkpt lat="48.56241" lon="6.09626">
        <ele>259</ele>
        <time>2011-05-28T02:28:00Z</time>
      </trkpt>
      <trkpt lat="48.56244" lon="6.09646">
        <ele>259</ele>
        <time>2011-05-28T02:28:03Z</time>
      </trkpt>
      <trkpt lat="48.56256" lon="6.09672">
        <ele>260</ele>
        <time>2011-05-28T02:28:06Z</time>
      </trkpt>
      <trkpt lat="48.56274" lon="6.09673">
        <ele>260</ele>
        <time>2011-05-28T02:28:09Z</time>
      </trkpt>
      <trkpt lat="48.563" lon="6.09687">
        <ele>260</ele>
        <time>2011-05-28T02:28:12Z</time>
      </trkpt>
      <trkpt lat="48.56373" lon="6.09745">
        <ele>260</ele>
        <time>2011-05-28T02:28:24Z</time>
      </trkpt>
      <trkpt lat="48.56373" lon="6.09745">
        <ele>260</ele>
        <time>2011-05-28T02:28:25Z</time>
      </trkpt>
      <trkpt lat="48.56429" lon="6.09794">
        <ele>258</ele>
        <time>2011-05-28T02:28:33Z</time>
      </trkpt>
      <trkpt lat="48.56487" lon="6.09884">
        <ele>257</ele>
        <time>2011-05-28T02:28:44Z</time>
      </trkpt>
      <trkpt lat="48.565" lon="6.09896">
        <ele>256</ele>
        <time>2011-05-28T02:28:46Z</time>
      </trkpt>
      <trkpt lat="48.5652" lon="6.09894">
        <ele>256</ele>
        <time>2011-05-28T02:28:49Z</time>
      </trkpt>
      <trkpt lat="48.56576" lon="6.09855">
        <ele>256</ele>
        <time>2011-05-28T02:28:57Z</time>
      </trkpt>
      <trkpt lat="48.566" lon="6.09831">
        <ele>254</ele>
        <time>2011-05-28T02:29:01Z</time>
      </trkpt>
      <trkpt lat="48.56632" lon="6.09789">
        <ele>252</ele>
        <time>2011-05-28T02:29:07Z</time>
      </trkpt>
      <trkpt lat="48.56649" lon="6.09775">
        <ele>251</ele>
        <time>2011-05-28T02:29:09Z</time>
      </trkpt>
      <trkpt lat="48.5668" lon="6.09777">
        <ele>249</ele>
        <time>2011-05-28T02:29:13Z</time>
      </trkpt>
      <trkpt lat="48.567" lon="6.0979">
        <ele>248</ele>
        <time>2011-05-28T02:29:16Z</time>
      </trkpt>
      <trkpt lat="48.56947" lon="6.10065">
        <ele>231</ele>
        <time>2011-05-28T02:29:57Z</time>
      </trkpt>
      <trkpt lat="48.56967" lon="6.10096">
        <ele>229</ele>
        <time>2011-05-28T02:30:01Z</time>
      </trkpt>
      <trkpt lat="48.56989" lon="6.10145">
        <ele>226</ele>
        <time>2011-05-28T02:30:06Z</time>
      </trkpt>
      <trkpt lat="48.57003" lon="6.10194">
        <ele>224</ele>
        <time>2011-05-28T02:30:11Z</time>
      </trkpt>
      <trkpt lat="48.57009" lon="6.10251">
        <ele>224</ele>
        <time>2011-05-28T02:30:16Z</time>
      </trkpt>
      <trkpt lat="48.57004" lon="6.10289">
        <ele>224</ele>
        <time>2011-05-28T02:30:20Z</time>
      </trkpt>
      <trkpt lat="48.57091" lon="6.10341">
        <ele>224</ele>
        <time>2011-05-28T02:30:32Z</time>
      </trkpt>
      <trkpt lat="48.57097" lon="6.1034">
        <ele>223</ele>
        <time>2011-05-28T02:30:33Z</time>
      </trkpt>
      <trkpt lat="48.57272" lon="6.10482">
        <ele>223</ele>
        <time>2011-05-28T02:30:59Z</time>
      </trkpt>
      <trkpt lat="48.57331" lon="6.10519">
        <ele>223</ele>
        <time>2011-05-28T02:31:08Z</time>
      </trkpt>
      <trkpt lat="48.57384" lon="6.10539">
        <ele>223</ele>
        <time>2011-05-28T02:31:15Z</time>
      </trkpt>
      <trkpt lat="48.5747" lon="6.10552">
        <ele>222</ele>
        <time>2011-05-28T02:31:27Z</time>
      </trkpt>
      <trkpt lat="48.57589" lon="6.10557">
        <ele>221</ele>
        <time>2011-05-28T02:31:43Z</time>
      </trkpt>
      <trkpt lat="48.57563" lon="6.11006">
        <ele>235</ele>
        <time>2011-05-28T02:33:19Z</time>
      </trkpt>
      <trkpt lat="48.57572" lon="6.11082">
        <ele>237</ele>
        <time>2011-05-28T02:33:34Z</time>
      </trkpt>
      <trkpt lat="48.57635" lon="6.11371">
        <ele>245</ele>
        <time>2011-05-28T02:34:32Z</time>
      </trkpt>
      <trkpt lat="48.57641" lon="6.1141">
        <ele>246</ele>
        <time>2011-05-28T02:34:40Z</time>
      </trkpt>
      <trkpt lat="48.57641" lon="6.11441">
        <ele>247</ele>
        <time>2011-05-28T02:34:47Z</time>
      </trkpt>
      <trkpt lat="48.57636" lon="6.11459">
        <ele>247</ele>
        <time>2011-05-28T02:34:51Z</time>
      </trkpt>
      <trkpt lat="48.57511" lon="6.11732">
        <ele>257</ele>
        <time>2011-05-28T02:35:58Z</time>
      </trkpt>
      <trkpt lat="48.5749" lon="6.11766">
        <ele>257</ele>
        <time>2011-05-28T02:36:05Z</time>
      </trkpt>
      <trkpt lat="48.57474" lon="6.11783">
        <ele>258</ele>
        <time>2011-05-28T02:36:10Z</time>
      </trkpt>
      <trkpt lat="48.57014" lon="6.1197">
        <ele>271</ele>
        <time>2011-05-28T02:38:04Z</time>
      </trkpt>
      <trkpt lat="48.56978" lon="6.11993">
        <ele>271</ele>
        <time>2011-05-28T02:38:13Z</time>
      </trkpt>
      <trkpt lat="48.56968" lon="6.12003">
        <ele>272</ele>
        <time>2011-05-28T02:38:16Z</time>
      </trkpt>
      <trkpt lat="48.56918" lon="6.12083">
        <ele>274</ele>
        <time>2011-05-28T02:38:33Z</time>
      </trkpt>
      <trkpt lat="48.56729" lon="6.12398">
        <ele>279</ele>
        <time>2011-05-28T02:39:30Z</time>
      </trkpt>
      <trkpt lat="48.57404" lon="6.1334">
        <ele>291</ele>
        <time>2011-05-28T02:42:21Z</time>
      </trkpt>
      <trkpt lat="48.58032" lon="6.14202">
        <ele>306</ele>
        <time>2011-05-28T02:45:14Z</time>
      </trkpt>
      <trkpt lat="48.58094" lon="6.14269">
        <ele>303</ele>
        <time>2011-05-28T02:45:24Z</time>
      </trkpt>
      <trkpt lat="48.58604" lon="6.14681">
        <ele>284</ele>
        <time>2011-05-28T02:46:42Z</time>
      </trkpt>
      <trkpt lat="48.58787" lon="6.14841">
        <ele>270</ele>
        <time>2011-05-28T02:47:10Z</time>
      </trkpt>
      <trkpt lat="48.58844" lon="6.14882">
        <ele>265</ele>
        <time>2011-05-28T02:47:18Z</time>
      </trkpt>
      <trkpt lat="48.5889" lon="6.14924">
        <ele>262</ele>
        <time>2011-05-28T02:47:25Z</time>
      </trkpt>
      <trkpt lat="48.59018" lon="6.15026">
        <ele>258</ele>
        <time>2011-05-28T02:47:45Z</time>
      </trkpt>
      <trkpt lat="48.59025" lon="6.15017">
        <ele>258</ele>
        <time>2011-05-28T02:47:47Z</time>
      </trkpt>
      <trkpt lat="48.5892" lon="6.1493">
        <ele>260</ele>
        <time>2011-05-28T02:48:10Z</time>
      </trkpt>
      <trkpt lat="48.5892" lon="6.1493">
        <ele>260</ele>
        <time>2011-05-28T02:48:11Z</time>
      </trkpt>
      <trkpt lat="48.58848" lon="6.14867">
        <ele>265</ele>
        <time>2011-05-28T02:48:43Z</time>
      </trkpt>
      <trkpt lat="48.58795" lon="6.14829">
        <ele>269</ele>
        <time>2011-05-28T02:49:06Z</time>
      </trkpt>
      <trkpt lat="48.58787" lon="6.14841">
        <ele>268</ele>
        <time>2011-05-28T02:49:07Z</time>
      </trkpt>
      <trkpt lat="48.58844" lon="6.14882">
        <ele>264</ele>
        <time>2011-05-28T02:49:16Z</time>
      </trkpt>
      <trkpt lat="48.5889" lon="6.14924">
        <ele>262</ele>
        <time>2011-05-28T02:49:23Z</time>
      </trkpt>
      <trkpt lat="48.59046" lon="6.1505">
        <ele>258</ele>
        <time>2011-05-28T02:49:47Z</time>
      </trkpt>
      <trkpt lat="48.59055" lon="6.15052">
        <ele>257</ele>
        <time>2011-05-28T02:49:48Z</time>
      </trkpt>
      <trkpt lat="48.59119" lon="6.15104">
        <ele>255</ele>
        <time>2011-05-28T02:49:58Z</time>
      </trkpt>
      <trkpt lat="48.59167" lon="6.15134">
        <ele>254</ele>
        <time>2011-05-28T02:50:05Z</time>
      </trkpt>
      <trkpt lat="48.59235" lon="6.15138">
        <ele>251</ele>
        <time>2011-05-28T02:50:14Z</time>
      </trkpt>
      <trkpt lat="48.59342" lon="6.15168">
        <ele>248</ele>
        <time>2011-05-28T02:50:28Z</time>
      </trkpt>
      <trkpt lat="48.5938" lon="6.1517">
        <ele>245</ele>
        <time>2011-05-28T02:50:33Z</time>
      </trkpt>
      <trkpt lat="48.5941" lon="6.15156">
        <ele>243</ele>
        <time>2011-05-28T02:50:38Z</time>
      </trkpt>
      <trkpt lat="48.5944" lon="6.15159">
        <ele>242</ele>
        <time>2011-05-28T02:50:42Z</time>
      </trkpt>
      <trkpt lat="48.59466" lon="6.15173">
        <ele>239</ele>
        <time>2011-05-28T02:50:45Z</time>
      </trkpt>
      <trkpt lat="48.59486" lon="6.15198">
        <ele>236</ele>
        <time>2011-05-28T02:50:49Z</time>
      </trkpt>
      <trkpt lat="48.59528" lon="6.15281">
        <ele>229</ele>
        <time>2011-05-28T02:50:58Z</time>
      </trkpt>
      <trkpt lat="48.59535" lon="6.15287">
        <ele>228</ele>
        <time>2011-05-28T02:50:59Z</time>
      </trkpt>
      <trkpt lat="48.59656" lon="6.15316">
        <ele>223</ele>
        <time>2011-05-28T02:51:15Z</time>
      </trkpt>
      <trkpt lat="48.59707" lon="6.15315">
        <ele>223</ele>
        <time>2011-05-28T02:51:22Z</time>
      </trkpt>
      <trkpt lat="48.59732" lon="6.15307">
        <ele>223</ele>
        <time>2011-05-28T02:51:26Z</time>
      </trkpt>
      <trkpt lat="48.59755" lon="6.15292">
        <ele>223</ele>
        <time>2011-05-28T02:51:29Z</time>
      </trkpt>
      <trkpt lat="48.59973" lon="6.1507">
        <ele>222</ele>
        <time>2011-05-28T02:52:04Z</time>
      </trkpt>
      <trkpt lat="48.6" lon="6.15063">
        <ele>221</ele>
        <time>2011-05-28T02:52:08Z</time>
      </trkpt>
      <trkpt lat="48.60032" lon="6.15063">
        <ele>221</ele>
        <time>2011-05-28T02:52:12Z</time>
      </trkpt>
      <trkpt lat="48.60067" lon="6.15104">
        <ele>221</ele>
        <time>2011-05-28T02:52:18Z</time>
      </trkpt>
      <trkpt lat="48.60081" lon="6.15138">
        <ele>221</ele>
        <time>2011-05-28T02:52:22Z</time>
      </trkpt>
      <trkpt lat="48.60227" lon="6.15397">
        <ele>222</ele>
        <time>2011-05-28T02:52:55Z</time>
      </trkpt>
      <trkpt lat="48.60268" lon="6.15486">
        <ele>225</ele>
        <time>2011-05-28T02:53:17Z</time>
      </trkpt>
      <trkpt lat="48.60282" lon="6.1555">
        <ele>227</ele>
        <time>2011-05-28T02:53:31Z</time>
      </trkpt>
      <trkpt lat="48.60271" lon="6.15564">
        <ele>227</ele>
        <time>2011-05-28T02:53:34Z</time>
      </trkpt>
      <trkpt lat="48.6026" lon="6.15606">
        <ele>228</ele>
        <time>2011-05-28T02:53:42Z</time>
      </trkpt>
      <trkpt lat="48.60259" lon="6.15656">
        <ele>229</ele>
        <time>2011-05-28T02:53:49Z</time>
      </trkpt>
      <trkpt lat="48.60259" lon="6.15656">
        <ele>229</ele>
        <time>2011-05-28T02:53:50Z</time>
      </trkpt>
      <trkpt lat="48.60272" lon="6.15712">
        <ele>229</ele>
        <time>2011-05-28T02:53:59Z</time>
      </trkpt>
      <trkpt lat="48.60285" lon="6.15738">
        <ele>230</ele>
        <time>2011-05-28T02:54:04Z</time>
      </trkpt>
      <trkpt lat="48.60439" lon="6.15939">
        <ele>235</ele>
        <time>2011-05-28T02:54:50Z</time>
      </trkpt>
      <trkpt lat="48.60442" lon="6.15948">
        <ele>235</ele>
        <time>2011-05-28T02:54:51Z</time>
      </trkpt>
      <trkpt lat="48.60475" lon="6.15972">
        <ele>236</ele>
        <time>2011-05-28T02:55:00Z</time>
      </trkpt>
      <trkpt lat="48.605" lon="6.16006">
        <ele>237</ele>
        <time>2011-05-28T02:55:08Z</time>
      </trkpt>
      <trkpt lat="48.60543" lon="6.16091">
        <ele>239</ele>
        <time>2011-05-28T02:55:25Z</time>
      </trkpt>
      <trkpt lat="48.60656" lon="6.16347">
        <ele>233</ele>
        <time>2011-05-28T02:55:53Z</time>
      </trkpt>
      <trkpt lat="48.6075" lon="6.16544">
        <ele>233</ele>
        <time>2011-05-28T02:56:14Z</time>
      </trkpt>
      <trkpt lat="48.60797" lon="6.16665">
        <ele>234</ele>
        <time>2011-05-28T02:56:30Z</time>
      </trkpt>
      <trkpt lat="48.60825" lon="6.16752">
        <ele>234</ele>
        <time>2011-05-28T02:56:41Z</time>
      </trkpt>
      <trkpt lat="48.60851" lon="6.16851">
        <ele>235</ele>
        <time>2011-05-28T02:56:52Z</time>
      </trkpt>
      <trkpt lat="48.60878" lon="6.17001">
        <ele>236</ele>
        <time>2011-05-28T02:57:10Z</time>
      </trkpt>
      <trkpt lat="48.60896" lon="6.17169">
        <ele>237</ele>
        <time>2011-05-28T02:57:29Z</time>
      </trkpt>
      <trkpt lat="48.60894" lon="6.17186">
        <ele>237</ele>
        <time>2011-05-28T02:57:31Z</time>
      </trkpt>
      <trkpt lat="48.60904" lon="6.17332">
        <ele>238</ele>
        <time>2011-05-28T02:57:48Z</time>
      </trkpt>
      <trkpt lat="48.60896" lon="6.17338">
        <ele>238</ele>
        <time>2011-05-28T02:57:50Z</time>
      </trkpt>
      <trkpt lat="48.60885" lon="6.17366">
        <ele>238</ele>
        <time>2011-05-28T02:57:54Z</time>
      </trkpt>
      <trkpt lat="48.60887" lon="6.17396">
        <ele>239</ele>
        <time>2011-05-28T02:57:59Z</time>
      </trkpt>
      <trkpt lat="48.60904" lon="6.1742">
        <ele>239</ele>
        <time>2011-05-28T02:58:04Z</time>
      </trkpt>
      <trkpt lat="48.60923" lon="6.17422">
        <ele>240</ele>
        <time>2011-05-28T02:58:08Z</time>
      </trkpt>
      <trkpt lat="48.60933" lon="6.17413">
        <ele>240</ele>
        <time>2011-05-28T02:58:11Z</time>
      </trkpt>
      <trkpt lat="48.60941" lon="6.17394">
        <ele>240</ele>
        <time>2011-05-28T02:58:14Z</time>
      </trkpt>
      <trkpt lat="48.60979" lon="6.1739">
        <ele>241</ele>
        <time>2011-05-28T02:58:22Z</time>
      </trkpt>
      <trkpt lat="48.61006" lon="6.17393">
        <ele>242</ele>
        <time>2011-05-28T02:58:28Z</time>
      </trkpt>
      <trkpt lat="48.61141" lon="6.1744">
        <ele>251</ele>
        <time>2011-05-28T02:59:23Z</time>
      </trkpt>
      <trkpt lat="48.61163" lon="6.17452">
        <ele>252</ele>
        <time>2011-05-28T02:59:34Z</time>
      </trkpt>
      <trkpt lat="48.61186" lon="6.17469">
        <ele>255</ele>
        <time>2011-05-28T02:59:45Z</time>
      </trkpt>
      <trkpt lat="48.61205" lon="6.17495">
        <ele>257</ele>
        <time>2011-05-28T02:59:57Z</time>
      </trkpt>
      <trkpt lat="48.61219" lon="6.17522">
        <ele>259</ele>
        <time>2011-05-28T03:00:08Z</time>
      </trkpt>
      <trkpt lat="48.61247" lon="6.17595">
        <ele>260</ele>
        <time>2011-05-28T03:00:21Z</time>
      </trkpt>
      <trkpt lat="48.61262" lon="6.1762">
        <ele>260</ele>
        <time>2011-05-28T03:00:26Z</time>
      </trkpt>
      <trkpt lat="48.61295" lon="6.17655">
        <ele>262</ele>
        <time>2011-05-28T03:00:36Z</time>
      </trkpt>
      <trkpt lat="48.61353" lon="6.17689">
        <ele>264</ele>
        <time>2011-05-28T03:00:53Z</time>
      </trkpt>
      <trkpt lat="48.61379" lon="6.1769">
        <ele>265</ele>
        <time>2011-05-28T03:01:00Z</time>
      </trkpt>
      <trkpt lat="48.61398" lon="6.17685">
        <ele>266</ele>
        <time>2011-05-28T03:01:06Z</time>
      </trkpt>
      <trkpt lat="48.61458" lon="6.17652">
        <ele>267</ele>
        <time>2011-05-28T03:01:21Z</time>
      </trkpt>
      <trkpt lat="48.61513" lon="6.17641">
        <ele>269</ele>
        <time>2011-05-28T03:01:34Z</time>
      </trkpt>
      <trkpt lat="48.61587" lon="6.17634">
        <ele>265</ele>
        <time>2011-05-28T03:01:44Z</time>
      </trkpt>
      <trkpt lat="48.61685" lon="6.17646">
        <ele>261</ele>
        <time>2011-05-28T03:01:57Z</time>
      </trkpt>
      <trkpt lat="48.61722" lon="6.17659">
        <ele>259</ele>
        <time>2011-05-28T03:02:02Z</time>
      </trkpt>
      <trkpt lat="48.61773" lon="6.17701">
        <ele>258</ele>
        <time>2011-05-28T03:02:10Z</time>
      </trkpt>
      <trkpt lat="48.61776" lon="6.17714">
        <ele>258</ele>
        <time>2011-05-28T03:02:11Z</time>
      </trkpt>
      <trkpt lat="48.61823" lon="6.17766">
        <ele>258</ele>
        <time>2011-05-28T03:02:19Z</time>
      </trkpt>
      <trkpt lat="48.61822" lon="6.17794">
        <ele>258</ele>
        <time>2011-05-28T03:02:21Z</time>
      </trkpt>
      <trkpt lat="48.61824" lon="6.17802">
        <ele>258</ele>
        <time>2011-05-28T03:02:22Z</time>
      </trkpt>
      <trkpt lat="48.61831" lon="6.17807">
        <ele>258</ele>
        <time>2011-05-28T03:02:23Z</time>
      </trkpt>
      <trkpt lat="48.61852" lon="6.17805">
        <ele>259</ele>
        <time>2011-05-28T03:02:30Z</time>
      </trkpt>
      <trkpt lat="48.61864" lon="6.17789">
        <ele>259</ele>
        <time>2011-05-28T03:02:36Z</time>
      </trkpt>
      <trkpt lat="48.62097" lon="6.17818">
        <ele>272</ele>
        <time>2011-05-28T03:03:55Z</time>
      </trkpt>
      <trkpt lat="48.62121" lon="6.17822">
        <ele>272</ele>
        <time>2011-05-28T03:04:00Z</time>
      </trkpt>
      <trkpt lat="48.62133" lon="6.17833">
        <ele>272</ele>
        <time>2011-05-28T03:04:03Z</time>
      </trkpt>
      <trkpt lat="48.62185" lon="6.17834">
        <ele>273</ele>
        <time>2011-05-28T03:04:14Z</time>
      </trkpt>
      <trkpt lat="48.62201" lon="6.17952">
        <ele>275</ele>
        <time>2011-05-28T03:04:30Z</time>
      </trkpt>
      <trkpt lat="48.62267" lon="6.18138">
        <ele>277</ele>
        <time>2011-05-28T03:04:57Z</time>
      </trkpt>
      <trkpt lat="48.62301" lon="6.18284">
        <ele>276</ele>
        <time>2011-05-28T03:05:10Z</time>
      </trkpt>
      <trkpt lat="48.62352" lon="6.18548">
        <ele>280</ele>
        <time>2011-05-28T03:05:50Z</time>
      </trkpt>
      <trkpt lat="48.62382" lon="6.18684">
        <ele>275</ele>
        <time>2011-05-28T03:06:03Z</time>
      </trkpt>
      <trkpt lat="48.62405" lon="6.18838">
        <ele>264</ele>
        <time>2011-05-28T03:06:17Z</time>
      </trkpt>
      <trkpt lat="48.62406" lon="6.18903">
        <ele>262</ele>
        <time>2011-05-28T03:06:23Z</time>
      </trkpt>
      <trkpt lat="48.624" lon="6.18978">
        <ele>260</ele>
        <time>2011-05-28T03:06:29Z</time>
      </trkpt>
      <trkpt lat="48.62419" lon="6.19068">
        <ele>258</ele>
        <time>2011-05-28T03:06:38Z</time>
      </trkpt>
      <trkpt lat="48.62419" lon="6.19068">
        <ele>258</ele>
        <time>2011-05-28T03:06:39Z</time>
      </trkpt>
      <trkpt lat="48.6248" lon="6.19319">
        <ele>245</ele>
        <time>2011-05-28T03:07:02Z</time>
      </trkpt>
      <trkpt lat="48.62487" lon="6.19375">
        <ele>243</ele>
        <time>2011-05-28T03:07:07Z</time>
      </trkpt>
      <trkpt lat="48.62484" lon="6.194">
        <ele>242</ele>
        <time>2011-05-28T03:07:10Z</time>
      </trkpt>
      <trkpt lat="48.62475" lon="6.19424">
        <ele>241</ele>
        <time>2011-05-28T03:07:12Z</time>
      </trkpt>
      <trkpt lat="48.62446" lon="6.19459">
        <ele>240</ele>
        <time>2011-05-28T03:07:17Z</time>
      </trkpt>
      <trkpt lat="48.62435" lon="6.19481">
        <ele>238</ele>
        <time>2011-05-28T03:07:20Z</time>
      </trkpt>
      <trkpt lat="48.62431" lon="6.19517">
        <ele>237</ele>
        <time>2011-05-28T03:07:23Z</time>
      </trkpt>
      <trkpt lat="48.62446" lon="6.19639">
        <ele>232</ele>
        <time>2011-05-28T03:07:34Z</time>
      </trkpt>
      <trkpt lat="48.62449" lon="6.19696">
        <ele>230</ele>
        <time>2011-05-28T03:07:39Z</time>
      </trkpt>
      <trkpt lat="48.62443" lon="6.19732">
        <ele>229</ele>
        <time>2011-05-28T03:07:42Z</time>
      </trkpt>
      <trkpt lat="48.62413" lon="6.19788">
        <ele>227</ele>
        <time>2011-05-28T03:07:48Z</time>
      </trkpt>
      <trkpt lat="48.62406" lon="6.19817">
        <ele>225</ele>
        <time>2011-05-28T03:07:51Z</time>
      </trkpt>
      <trkpt lat="48.62412" lon="6.19847">
        <ele>224</ele>
        <time>2011-05-28T03:07:54Z</time>
      </trkpt>
      <trkpt lat="48.62421" lon="6.19869">
        <ele>223</ele>
        <time>2011-05-28T03:07:56Z</time>
      </trkpt>
      <trkpt lat="48.62487" lon="6.19972">
        <ele>218</ele>
        <time>2011-05-28T03:08:09Z</time>
      </trkpt>
      <trkpt lat="48.62494" lon="6.1999">
        <ele>218</ele>
        <time>2011-05-28T03:08:11Z</time>
      </trkpt>
      <trkpt lat="48.62497" lon="6.20009">
        <ele>218</ele>
        <time>2011-05-28T03:08:12Z</time>
      </trkpt>
      <trkpt lat="48.62489" lon="6.20082">
        <ele>218</ele>
        <time>2011-05-28T03:08:19Z</time>
      </trkpt>
      <trkpt lat="48.62486" lon="6.20171">
        <ele>218</ele>
        <time>2011-05-28T03:08:27Z</time>
      </trkpt>
      <trkpt lat="48.62493" lon="6.20208">
        <ele>218</ele>
        <time>2011-05-28T03:08:30Z</time>
      </trkpt>
      <trkpt lat="48.62511" lon="6.20226">
        <ele>218</ele>
        <time>2011-05-28T03:08:33Z</time>
      </trkpt>
      <trkpt lat="48.62517" lon="6.20238">
        <ele>218</ele>
        <time>2011-05-28T03:08:34Z</time>
      </trkpt>
      <trkpt lat="48.62516" lon="6.20277">
        <ele>218</ele>
        <time>2011-05-28T03:08:38Z</time>
      </trkpt>
      <trkpt lat="48.62567" lon="6.20284">
        <ele>218</ele>
        <time>2011-05-28T03:08:45Z</time>
      </trkpt>
      <trkpt lat="48.62566" lon="6.20335">
        <ele>217</ele>
        <time>2011-05-28T03:08:49Z</time>
      </trkpt>
      <trkpt lat="48.62556" lon="6.20445">
        <ele>217</ele>
        <time>2011-05-28T03:08:59Z</time>
      </trkpt>
      <trkpt lat="48.62561" lon="6.2057">
        <ele>220</ele>
        <time>2011-05-28T03:09:24Z</time>
      </trkpt>
      <trkpt lat="48.62556" lon="6.20577">
        <ele>220</ele>
        <time>2011-05-28T03:09:26Z</time>
      </trkpt>
      <trkpt lat="48.62556" lon="6.20589">
        <ele>221</ele>
        <time>2011-05-28T03:09:28Z</time>
      </trkpt>
      <trkpt lat="48.62559" lon="6.20592">
        <ele>220</ele>
        <time>2011-05-28T03:09:29Z</time>
      </trkpt>
      <trkpt lat="48.62567" lon="6.20593">
        <ele>220</ele>
        <time>2011-05-28T03:09:30Z</time>
      </trkpt>
      <trkpt lat="48.62571" lon="6.20586">
        <ele>220</ele>
        <time>2011-05-28T03:09:30Z</time>
      </trkpt>
      <trkpt lat="48.62604" lon="6.20606">
        <ele>219</ele>
        <time>2011-05-28T03:09:35Z</time>
      </trkpt>
      <trkpt lat="48.62847" lon="6.20762">
        <ele>213</ele>
        <time>2011-05-28T03:10:10Z</time>
      </trkpt>
      <trkpt lat="48.6287" lon="6.20785">
        <ele>213</ele>
        <time>2011-05-28T03:10:17Z</time>
      </trkpt>
      <trkpt lat="48.62855" lon="6.20845">
        <ele>214</ele>
        <time>2011-05-28T03:10:27Z</time>
      </trkpt>
      <trkpt lat="48.62796" lon="6.21137">
        <ele>220</ele>
        <time>2011-05-28T03:11:15Z</time>
      </trkpt>
      <trkpt lat="48.62771" lon="6.21314">
        <ele>218</ele>
        <time>2011-05-28T03:11:31Z</time>
      </trkpt>
      <trkpt lat="48.62702" lon="6.21523">
        <ele>222</ele>
        <time>2011-05-28T03:12:07Z</time>
      </trkpt>
      <trkpt lat="48.62606" lon="6.21834">
        <ele>214</ele>
        <time>2011-05-28T03:12:38Z</time>
      </trkpt>
      <trkpt lat="48.62592" lon="6.21924">
        <ele>215</ele>
        <time>2011-05-28T03:12:50Z</time>
      </trkpt>
      <trkpt lat="48.62573" lon="6.21993">
        <ele>216</ele>
        <time>2011-05-28T03:13:00Z</time>
      </trkpt>
      <trkpt lat="48.62535" lon="6.22097">
        <ele>217</ele>
        <time>2011-05-28T03:13:18Z</time>
      </trkpt>
      <trkpt lat="48.62503" lon="6.22169">
        <ele>219</ele>
        <time>2011-05-28T03:13:31Z</time>
      </trkpt>
      <trkpt lat="48.62218" lon="6.22511">
        <ele>225</ele>
        <time>2011-05-28T03:14:43Z</time>
      </trkpt>
      <trkpt lat="48.62108" lon="6.22709">
        <ele>218</ele>
        <time>2011-05-28T03:15:06Z</time>
      </trkpt>
      <trkpt lat="48.62035" lon="6.2281">
        <ele>218</ele>
        <time>2011-05-28T03:15:19Z</time>
      </trkpt>
      <trkpt lat="48.62026" lon="6.22816">
        <ele>218</ele>
        <time>2011-05-28T03:15:23Z</time>
      </trkpt>
      <trkpt lat="48.62005" lon="6.22818">
        <ele>219</ele>
        <time>2011-05-28T03:15:30Z</time>
      </trkpt>
      <trkpt lat="48.61866" lon="6.22811">
        <ele>227</ele>
        <time>2011-05-28T03:16:18Z</time>
      </trkpt>
      <trkpt lat="48.61754" lon="6.22822">
        <ele>233</ele>
        <time>2011-05-28T03:16:57Z</time>
      </trkpt>
      <trkpt lat="48.61617" lon="6.22902">
        <ele>235</ele>
        <time>2011-05-28T03:17:25Z</time>
      </trkpt>
      <trkpt lat="48.61467" lon="6.23007">
        <ele>239</ele>
        <time>2011-05-28T03:18:03Z</time>
      </trkpt>
      <trkpt lat="48.61436" lon="6.23062">
        <ele>238</ele>
        <time>2011-05-28T03:18:09Z</time>
      </trkpt>
      <trkpt lat="48.61322" lon="6.23319">
        <ele>236</ele>
        <time>2011-05-28T03:18:36Z</time>
      </trkpt>
      <trkpt lat="48.61288" lon="6.2337">
        <ele>235</ele>
        <time>2011-05-28T03:18:43Z</time>
      </trkpt>
      <trkpt lat="48.61288" lon="6.2337">
        <ele>235</ele>
        <time>2011-05-28T03:18:44Z</time>
      </trkpt>
      <trkpt lat="48.61198" lon="6.23492">
        <ele>232</ele>
        <time>2011-05-28T03:19:00Z</time>
      </trkpt>
      <trkpt lat="48.61154" lon="6.23588">
        <ele>234</ele>
        <time>2011-05-28T03:19:20Z</time>
      </trkpt>
      <trkpt lat="48.61099" lon="6.23599">
        <ele>236</ele>
        <time>2011-05-28T03:19:34Z</time>
      </trkpt>
      <trkpt lat="48.61069" lon="6.23643">
        <ele>238</ele>
        <time>2011-05-28T03:19:49Z</time>
      </trkpt>
      <trkpt lat="48.61049" lon="6.23663">
        <ele>239</ele>
        <time>2011-05-28T03:19:58Z</time>
      </trkpt>
      <trkpt lat="48.61044" lon="6.23714">
        <ele>242</ele>
        <time>2011-05-28T03:20:11Z</time>
      </trkpt>
      <trkpt lat="48.61057" lon="6.23748">
        <ele>242</ele>
        <time>2011-05-28T03:20:15Z</time>
      </trkpt>
      <trkpt lat="48.61121" lon="6.24001">
        <ele>244</ele>
        <time>2011-05-28T03:20:46Z</time>
      </trkpt>
      <trkpt lat="48.61135" lon="6.24063">
        <ele>243</ele>
        <time>2011-05-28T03:20:52Z</time>
      </trkpt>
      <trkpt lat="48.61157" lon="6.24204">
        <ele>241</ele>
        <time>2011-05-28T03:21:05Z</time>
      </trkpt>
      <trkpt lat="48.61198" lon="6.24357">
        <ele>239</ele>
        <time>2011-05-28T03:21:20Z</time>
      </trkpt>
      <trkpt lat="48.61213" lon="6.24436">
        <ele>238</ele>
        <time>2011-05-28T03:21:27Z</time>
      </trkpt>
      <trkpt lat="48.61238" lon="6.24514">
        <ele>238</ele>
        <time>2011-05-28T03:21:34Z</time>
      </trkpt>
      <trkpt lat="48.61273" lon="6.24687">
        <ele>238</ele>
        <time>2011-05-28T03:21:50Z</time>
      </trkpt>
      <trkpt lat="48.61275" lon="6.24718">
        <ele>238</ele>
        <time>2011-05-28T03:21:53Z</time>
      </trkpt>
      <trkpt lat="48.61272" lon="6.24754">
        <ele>238</ele>
        <time>2011-05-28T03:21:56Z</time>
      </trkpt>
      <trkpt lat="48.6125" lon="6.2486">
        <ele>238</ele>
        <time>2011-05-28T03:22:06Z</time>
      </trkpt>
      <trkpt lat="48.61246" lon="6.24897">
        <ele>237</ele>
        <time>2011-05-28T03:22:09Z</time>
      </trkpt>
      <trkpt lat="48.61245" lon="6.24968">
        <ele>237</ele>
        <time>2011-05-28T03:22:16Z</time>
      </trkpt>
      <trkpt lat="48.61305" lon="6.25033">
        <ele>236</ele>
        <time>2011-05-28T03:22:26Z</time>
      </trkpt>
      <trkpt lat="48.61372" lon="6.25123">
        <ele>232</ele>
        <time>2011-05-28T03:22:38Z</time>
      </trkpt>
      <trkpt lat="48.61448" lon="6.25257">
        <ele>229</ele>
        <time>2011-05-28T03:22:53Z</time>
      </trkpt>
      <trkpt lat="48.61485" lon="6.25356">
        <ele>227</ele>
        <time>2011-05-28T03:23:03Z</time>
      </trkpt>
      <trkpt lat="48.61576" lon="6.25406">
        <ele>226</ele>
        <time>2011-05-28T03:23:16Z</time>
      </trkpt>
      <trkpt lat="48.61599" lon="6.25414">
        <ele>225</ele>
        <time>2011-05-28T03:23:19Z</time>
      </trkpt>
      <trkpt lat="48.61614" lon="6.25455">
        <ele>224</ele>
        <time>2011-05-28T03:23:23Z</time>
      </trkpt>
      <trkpt lat="48.61651" lon="6.2559">
        <ele>223</ele>
        <time>2011-05-28T03:23:36Z</time>
      </trkpt>
      <trkpt lat="48.61658" lon="6.25633">
        <ele>223</ele>
        <time>2011-05-28T03:23:43Z</time>
      </trkpt>
      <trkpt lat="48.61657" lon="6.25663">
        <ele>224</ele>
        <time>2011-05-28T03:23:48Z</time>
      </trkpt>
      <trkpt lat="48.61643" lon="6.25707">
        <ele>225</ele>
        <time>2011-05-28T03:23:56Z</time>
      </trkpt>
      <trkpt lat="48.61599" lon="6.25787">
        <ele>227</ele>
        <time>2011-05-28T03:24:12Z</time>
      </trkpt>
      <trkpt lat="48.61581" lon="6.25872">
        <ele>228</ele>
        <time>2011-05-28T03:24:28Z</time>
      </trkpt>
      <trkpt lat="48.61537" lon="6.25945">
        <ele>231</ele>
        <time>2011-05-28T03:24:45Z</time>
      </trkpt>
      <trkpt lat="48.61512" lon="6.26001">
        <ele>232</ele>
        <time>2011-05-28T03:24:55Z</time>
      </trkpt>
      <trkpt lat="48.61507" lon="6.26027">
        <ele>232</ele>
        <time>2011-05-28T03:25:00Z</time>
      </trkpt>
      <trkpt lat="48.61508" lon="6.26116">
        <ele>234</ele>
        <time>2011-05-28T03:25:13Z</time>
      </trkpt>
      <trkpt lat="48.61524" lon="6.26177">
        <ele>234</ele>
        <time>2011-05-28T03:25:19Z</time>
      </trkpt>
      <trkpt lat="48.61579" lon="6.26288">
        <ele>234</ele>
        <time>2011-05-28T03:25:31Z</time>
      </trkpt>
      <trkpt lat="48.61624" lon="6.26394">
        <ele>231</ele>
        <time>2011-05-28T03:25:42Z</time>
      </trkpt>
      <trkpt lat="48.61635" lon="6.2643">
        <ele>231</ele>
        <time>2011-05-28T03:25:46Z</time>
      </trkpt>
      <trkpt lat="48.61646" lon="6.26511">
        <ele>231</ele>
        <time>2011-05-28T03:25:56Z</time>
      </trkpt>
      <trkpt lat="48.61652" lon="6.26637">
        <ele>233</ele>
        <time>2011-05-28T03:26:12Z</time>
      </trkpt>
      <trkpt lat="48.61679" lon="6.26975">
        <ele>237</ele>
        <time>2011-05-28T03:26:58Z</time>
      </trkpt>
      <trkpt lat="48.61704" lon="6.27218">
        <ele>241</ele>
        <time>2011-05-28T03:27:36Z</time>
      </trkpt>
      <trkpt lat="48.61713" lon="6.27276">
        <ele>242</ele>
        <time>2011-05-28T03:27:47Z</time>
      </trkpt>
      <trkpt lat="48.61732" lon="6.27349">
        <ele>244</ele>
        <time>2011-05-28T03:28:00Z</time>
      </trkpt>
      <trkpt lat="48.61729" lon="6.27369">
        <ele>244</ele>
        <time>2011-05-28T03:28:03Z</time>
      </trkpt>
      <trkpt lat="48.61731" lon="6.27384">
        <ele>244</ele>
        <time>2011-05-28T03:28:05Z</time>
      </trkpt>
      <trkpt lat="48.61746" lon="6.27404">
        <ele>244</ele>
        <time>2011-05-28T03:28:09Z</time>
      </trkpt>
      <trkpt lat="48.61764" lon="6.27407">
        <ele>244</ele>
        <time>2011-05-28T03:28:12Z</time>
      </trkpt>
      <trkpt lat="48.61773" lon="6.27401">
        <ele>245</ele>
        <time>2011-05-28T03:28:14Z</time>
      </trkpt>
      <trkpt lat="48.61795" lon="6.27429">
        <ele>245</ele>
        <time>2011-05-28T03:28:20Z</time>
      </trkpt>
      <trkpt lat="48.61859" lon="6.27531">
        <ele>247</ele>
        <time>2011-05-28T03:28:38Z</time>
      </trkpt>
      <trkpt lat="48.61867" lon="6.27552">
        <ele>247</ele>
        <time>2011-05-28T03:28:41Z</time>
      </trkpt>
      <trkpt lat="48.61862" lon="6.27569">
        <ele>247</ele>
        <time>2011-05-28T03:28:43Z</time>
      </trkpt>
      <trkpt lat="48.61866" lon="6.27595">
        <ele>247</ele>
        <time>2011-05-28T03:28:46Z</time>
      </trkpt>
      <trkpt lat="48.61875" lon="6.27609">
        <ele>247</ele>
        <time>2011-05-28T03:28:48Z</time>
      </trkpt>
      <trkpt lat="48.61898" lon="6.27629">
        <ele>247</ele>
        <time>2011-05-28T03:28:53Z</time>
      </trkpt>
      <trkpt lat="48.61917" lon="6.27665">
        <ele>248</ele>
        <time>2011-05-28T03:28:58Z</time>
      </trkpt>
      <trkpt lat="48.61966" lon="6.27889">
        <ele>244</ele>
        <time>2011-05-28T03:29:18Z</time>
      </trkpt>
      <trkpt lat="48.6203" lon="6.28026">
        <ele>243</ele>
        <time>2011-05-28T03:29:33Z</time>
      </trkpt>
      <trkpt lat="48.62043" lon="6.28064">
        <ele>242</ele>
        <time>2011-05-28T03:29:37Z</time>
      </trkpt>
      <trkpt lat="48.62056" lon="6.28107">
        <ele>242</ele>
        <time>2011-05-28T03:29:41Z</time>
      </trkpt>
      <trkpt lat="48.6208" lon="6.28236">
        <ele>241</ele>
        <time>2011-05-28T03:29:53Z</time>
      </trkpt>
      <trkpt lat="48.62093" lon="6.28287">
        <ele>241</ele>
        <time>2011-05-28T03:29:58Z</time>
      </trkpt>
      <trkpt lat="48.62231" lon="6.28645">
        <ele>241</ele>
        <time>2011-05-28T03:30:35Z</time>
      </trkpt>
      <trkpt lat="48.62231" lon="6.28645">
        <ele>241</ele>
        <time>2011-05-28T03:30:36Z</time>
      </trkpt>
      <trkpt lat="48.62342" lon="6.28977">
        <ele>251</ele>
        <time>2011-05-28T03:31:48Z</time>
      </trkpt>
      <trkpt lat="48.62404" lon="6.29134">
        <ele>253</ele>
        <time>2011-05-28T03:32:13Z</time>
      </trkpt>
      <trkpt lat="48.62408" lon="6.29155">
        <ele>253</ele>
        <time>2011-05-28T03:32:15Z</time>
      </trkpt>
      <trkpt lat="48.62444" lon="6.29251">
        <ele>254</ele>
        <time>2011-05-28T03:32:30Z</time>
      </trkpt>
      <trkpt lat="48.62428" lon="6.29261">
        <ele>254</ele>
        <time>2011-05-28T03:32:34Z</time>
      </trkpt>
      <trkpt lat="48.62474" lon="6.29343">
        <ele>256</ele>
        <time>2011-05-28T03:32:48Z</time>
      </trkpt>
      <trkpt lat="48.62488" lon="6.29384">
        <ele>254</ele>
        <time>2011-05-28T03:32:52Z</time>
      </trkpt>
      <trkpt lat="48.62511" lon="6.29434">
        <ele>253</ele>
        <time>2011-05-28T03:32:57Z</time>
      </trkpt>
      <trkpt lat="48.62607" lon="6.29597">
        <ele>248</ele>
        <time>2011-05-28T03:33:17Z</time>
      </trkpt>
      <trkpt lat="48.62692" lon="6.29721">
        <ele>240</ele>
        <time>2011-05-28T03:33:33Z</time>
      </trkpt>
      <trkpt lat="48.62906" lon="6.30081">
        <ele>226</ele>
        <time>2011-05-28T03:34:15Z</time>
      </trkpt>
      <trkpt lat="48.62914" lon="6.30148">
        <ele>224</ele>
        <time>2011-05-28T03:34:21Z</time>
      </trkpt>
      <trkpt lat="48.62908" lon="6.30152">
        <ele>223</ele>
        <time>2011-05-28T03:34:22Z</time>
      </trkpt>
      <trkpt lat="48.6291" lon="6.30166">
        <ele>223</ele>
        <time>2011-05-28T03:34:23Z</time>
      </trkpt>
      <trkpt lat="48.62919" lon="6.30163">
        <ele>223</ele>
        <time>2011-05-28T03:34:25Z</time>
      </trkpt>
      <trkpt lat="48.62929" lon="6.3017">
        <ele>222</ele>
        <time>2011-05-28T03:34:26Z</time>
      </trkpt>
      <trkpt lat="48.62968" lon="6.30207">
        <ele>221</ele>
        <time>2011-05-28T03:34:32Z</time>
      </trkpt>
      <trkpt lat="48.63052" lon="6.30301">
        <ele>217</ele>
        <time>2011-05-28T03:34:46Z</time>
      </trkpt>
      <trkpt lat="48.63054" lon="6.3032">
        <ele>216</ele>
        <time>2011-05-28T03:34:48Z</time>
      </trkpt>
      <trkpt lat="48.63081" lon="6.3035">
        <ele>215</ele>
        <time>2011-05-28T03:34:52Z</time>
      </trkpt>
      <trkpt lat="48.63188" lon="6.30536">
        <ele>208</ele>
        <time>2011-05-28T03:35:14Z</time>
      </trkpt>
      <trkpt lat="48.63223" lon="6.30639">
        <ele>205</ele>
        <time>2011-05-28T03:35:24Z</time>
      </trkpt>
      <trkpt lat="48.63282" lon="6.3078">
        <ele>203</ele>
        <time>2011-05-28T03:35:39Z</time>
      </trkpt>
      <trkpt lat="48.63379" lon="6.30934">
        <ele>204</ele>
        <time>2011-05-28T03:36:02Z</time>
      </trkpt>
      <trkpt lat="48.63412" lon="6.3102">
        <ele>204</ele>
        <time>2011-05-28T03:36:11Z</time>
      </trkpt>
      <trkpt lat="48.63447" lon="6.31109">
        <ele>204</ele>
        <time>2011-05-28T03:36:20Z</time>
      </trkpt>
      <trkpt lat="48.63521" lon="6.31253">
        <ele>207</ele>
        <time>2011-05-28T03:36:48Z</time>
      </trkpt>
      <trkpt lat="48.63415" lon="6.31597">
        <ele>205</ele>
        <time>2011-05-28T03:37:21Z</time>
      </trkpt>
      <trkpt lat="48.63364" lon="6.31611">
        <ele>204</ele>
        <time>2011-05-28T03:37:28Z</time>
      </trkpt>
      <trkpt lat="48.63334" lon="6.31629">
        <ele>203</ele>
        <time>2011-05-28T03:37:33Z</time>
      </trkpt>
      <trkpt lat="48.63316" lon="6.31692">
        <ele>203</ele>
        <time>2011-05-28T03:37:39Z</time>
      </trkpt>
    </trkseg>
  </trk>
</gpx>